<?xml version="1.0" encoding="UTF-8" standalone="no" ?>
<gpx xmlns="http://www.topografix.com/GPX/1/1" xmlns:xsi="http://www.w3.org/2001/XMLSchema-instance" xsi:schemaLocation="http://www.topografix.com/GPX/1/1 http://www.topografix.com/GPX/1/1/gpx.xsd" version="1.1" creator="VisuGPX - https://www.visugpx.com">
  <metadata>
    <name>Circuit Trail à Crest-Voland</name>
    <desc><![CDATA[Version raccourcie de l'Arly Cimes Trail 27 km]]></desc>
  </metadata>
  <trk>
    <name><![CDATA[Circuit Trail à Crest-Voland_1]]></name>
    <trkseg>
      <trkpt lat="45.79361" lon="6.50329">
        <ele>1211</ele>
        <time>2000-01-01T01:29:33.000Z</time>
      </trkpt>
      <trkpt lat="45.79376" lon="6.5035">
        <ele>1213</ele>
        <time>2000-01-01T01:29:43.000Z</time>
      </trkpt>
      <trkpt lat="45.79387" lon="6.50365">
        <ele>1214.2</ele>
        <time>2000-01-01T01:29:53.000Z</time>
      </trkpt>
      <trkpt lat="45.79402" lon="6.5038">
        <ele>1215</ele>
        <time>2000-01-01T01:30:03.000Z</time>
      </trkpt>
      <trkpt lat="45.79415" lon="6.50394">
        <ele>1215.4</ele>
        <time>2000-01-01T01:30:13.000Z</time>
      </trkpt>
      <trkpt lat="45.79428" lon="6.50408">
        <ele>1215</ele>
        <time>2000-01-01T01:30:23.000Z</time>
      </trkpt>
      <trkpt lat="45.79437" lon="6.5042">
        <ele>1217.4</ele>
        <time>2000-01-01T01:30:33.000Z</time>
      </trkpt>
      <trkpt lat="45.79444" lon="6.50437">
        <ele>1215</ele>
        <time>2000-01-01T01:30:43.000Z</time>
      </trkpt>
      <trkpt lat="45.79457" lon="6.50455">
        <ele>1217.9</ele>
        <time>2000-01-01T01:30:53.000Z</time>
      </trkpt>
      <trkpt lat="45.79468" lon="6.50466">
        <ele>1217</ele>
        <time>2000-01-01T01:31:03.000Z</time>
      </trkpt>
      <trkpt lat="45.79483" lon="6.50477">
        <ele>1218</ele>
        <time>2000-01-01T01:31:13.000Z</time>
      </trkpt>
      <trkpt lat="45.79492" lon="6.50496">
        <ele>1220</ele>
        <time>2000-01-01T01:31:23.000Z</time>
      </trkpt>
      <trkpt lat="45.79505" lon="6.50517">
        <ele>1220</ele>
        <time>2000-01-01T01:31:33.000Z</time>
      </trkpt>
      <trkpt lat="45.79518" lon="6.50538">
        <ele>1223</ele>
        <time>2000-01-01T01:31:43.000Z</time>
      </trkpt>
      <trkpt lat="45.79525" lon="6.50552">
        <ele>1218.3</ele>
        <time>2000-01-01T01:31:53.000Z</time>
      </trkpt>
      <trkpt lat="45.79521" lon="6.50566">
        <ele>1221</ele>
        <time>2000-01-01T01:32:03.000Z</time>
      </trkpt>
      <trkpt lat="45.79523" lon="6.50589">
        <ele>1222</ele>
        <time>2000-01-01T01:32:13.000Z</time>
      </trkpt>
      <trkpt lat="45.79529" lon="6.5062">
        <ele>1221</ele>
        <time>2000-01-01T01:32:23.000Z</time>
      </trkpt>
      <trkpt lat="45.79533" lon="6.5064">
        <ele>1223.4</ele>
        <time>2000-01-01T01:32:33.000Z</time>
      </trkpt>
      <trkpt lat="45.79537" lon="6.50655">
        <ele>1221</ele>
        <time>2000-01-01T01:32:43.000Z</time>
      </trkpt>
      <trkpt lat="45.7955" lon="6.50656">
        <ele>1223</ele>
        <time>2000-01-01T01:32:53.000Z</time>
      </trkpt>
      <trkpt lat="45.79561" lon="6.5066">
        <ele>1225</ele>
        <time>2000-01-01T01:33:03.000Z</time>
      </trkpt>
      <trkpt lat="45.79573" lon="6.50677">
        <ele>1224.9</ele>
        <time>2000-01-01T01:33:13.000Z</time>
      </trkpt>
      <trkpt lat="45.79585" lon="6.50697">
        <ele>1226</ele>
        <time>2000-01-01T01:33:23.000Z</time>
      </trkpt>
      <trkpt lat="45.79597" lon="6.50719">
        <ele>1224</ele>
        <time>2000-01-01T01:33:33.000Z</time>
      </trkpt>
      <trkpt lat="45.79609" lon="6.50739">
        <ele>1222.7</ele>
        <time>2000-01-01T01:33:43.000Z</time>
      </trkpt>
      <trkpt lat="45.79624" lon="6.50761">
        <ele>1225</ele>
        <time>2000-01-01T01:33:53.000Z</time>
      </trkpt>
      <trkpt lat="45.79634" lon="6.50783">
        <ele>1224</ele>
        <time>2000-01-01T01:34:03.000Z</time>
      </trkpt>
      <trkpt lat="45.79649" lon="6.50807">
        <ele>1225</ele>
        <time>2000-01-01T01:34:13.000Z</time>
      </trkpt>
      <trkpt lat="45.7966" lon="6.50829">
        <ele>1225</ele>
        <time>2000-01-01T01:34:23.000Z</time>
      </trkpt>
      <trkpt lat="45.79671" lon="6.50842">
        <ele>1220.4</ele>
        <time>2000-01-01T01:34:33.000Z</time>
      </trkpt>
      <trkpt lat="45.79682" lon="6.50864">
        <ele>1225</ele>
        <time>2000-01-01T01:34:43.000Z</time>
      </trkpt>
      <trkpt lat="45.79686" lon="6.50877">
        <ele>1218.7</ele>
        <time>2000-01-01T01:34:53.000Z</time>
      </trkpt>
      <trkpt lat="45.79685" lon="6.50895">
        <ele>1224</ele>
        <time>2000-01-01T01:35:03.000Z</time>
      </trkpt>
      <trkpt lat="45.7968" lon="6.50918">
        <ele>1223.7</ele>
        <time>2000-01-01T01:35:13.000Z</time>
      </trkpt>
      <trkpt lat="45.79679" lon="6.50937">
        <ele>1224</ele>
        <time>2000-01-01T01:35:23.000Z</time>
      </trkpt>
      <trkpt lat="45.79682" lon="6.50952">
        <ele>1223.9</ele>
        <time>2000-01-01T01:35:33.000Z</time>
      </trkpt>
      <trkpt lat="45.79696" lon="6.50956">
        <ele>1224</ele>
        <time>2000-01-01T01:35:43.000Z</time>
      </trkpt>
      <trkpt lat="45.79708" lon="6.50956">
        <ele>1222.4</ele>
        <time>2000-01-01T01:35:53.000Z</time>
      </trkpt>
      <trkpt lat="45.79725" lon="6.50972">
        <ele>1224</ele>
        <time>2000-01-01T01:36:03.000Z</time>
      </trkpt>
      <trkpt lat="45.79741" lon="6.50996">
        <ele>1222</ele>
        <time>2000-01-01T01:36:13.000Z</time>
      </trkpt>
      <trkpt lat="45.79754" lon="6.5102">
        <ele>1221</ele>
        <time>2000-01-01T01:36:23.000Z</time>
      </trkpt>
      <trkpt lat="45.79769" lon="6.51045">
        <ele>1221</ele>
        <time>2000-01-01T01:36:33.000Z</time>
      </trkpt>
      <trkpt lat="45.79776" lon="6.51068">
        <ele>1220.6</ele>
        <time>2000-01-01T01:36:43.000Z</time>
      </trkpt>
      <trkpt lat="45.79784" lon="6.51087">
        <ele>1219</ele>
        <time>2000-01-01T01:36:53.000Z</time>
      </trkpt>
      <trkpt lat="45.79791" lon="6.51107">
        <ele>1226.1</ele>
        <time>2000-01-01T01:37:03.000Z</time>
      </trkpt>
      <trkpt lat="45.79804" lon="6.51121">
        <ele>1218</ele>
        <time>2000-01-01T01:37:13.000Z</time>
      </trkpt>
      <trkpt lat="45.7982" lon="6.5114">
        <ele>1218</ele>
        <time>2000-01-01T01:37:23.000Z</time>
      </trkpt>
      <trkpt lat="45.79844" lon="6.51186">
        <ele>1217</ele>
        <time>2000-01-01T01:37:33.000Z</time>
      </trkpt>
      <trkpt lat="45.79861" lon="6.51209">
        <ele>1216</ele>
        <time>2000-01-01T01:37:43.000Z</time>
      </trkpt>
      <trkpt lat="45.79873" lon="6.5122">
        <ele>1222.4</ele>
        <time>2000-01-01T01:37:53.000Z</time>
      </trkpt>
      <trkpt lat="45.79886" lon="6.51231">
        <ele>1215</ele>
        <time>2000-01-01T01:38:03.000Z</time>
      </trkpt>
      <trkpt lat="45.79897" lon="6.51251">
        <ele>1229</ele>
        <time>2000-01-01T01:38:13.000Z</time>
      </trkpt>
      <trkpt lat="45.7991" lon="6.51264">
        <ele>1217</ele>
        <time>2000-01-01T01:38:23.000Z</time>
      </trkpt>
      <trkpt lat="45.79922" lon="6.51275">
        <ele>1220.3</ele>
        <time>2000-01-01T01:38:33.000Z</time>
      </trkpt>
      <trkpt lat="45.79936" lon="6.51297">
        <ele>1214</ele>
        <time>2000-01-01T01:38:43.000Z</time>
      </trkpt>
      <trkpt lat="45.7995" lon="6.51311">
        <ele>1220</ele>
        <time>2000-01-01T01:38:53.000Z</time>
      </trkpt>
      <trkpt lat="45.79966" lon="6.51325">
        <ele>1212</ele>
        <time>2000-01-01T01:39:03.000Z</time>
      </trkpt>
      <trkpt lat="45.79982" lon="6.51341">
        <ele>1212</ele>
        <time>2000-01-01T01:39:13.000Z</time>
      </trkpt>
      <trkpt lat="45.79996" lon="6.51366">
        <ele>1212</ele>
        <time>2000-01-01T01:39:23.000Z</time>
      </trkpt>
      <trkpt lat="45.80004" lon="6.51386">
        <ele>1215.4</ele>
        <time>2000-01-01T01:39:33.000Z</time>
      </trkpt>
      <trkpt lat="45.80008" lon="6.51399">
        <ele>1209</ele>
        <time>2000-01-01T01:39:43.000Z</time>
      </trkpt>
      <trkpt lat="45.80021" lon="6.51424">
        <ele>1212</ele>
        <time>2000-01-01T01:39:53.000Z</time>
      </trkpt>
      <trkpt lat="45.80031" lon="6.51442">
        <ele>1222.4</ele>
        <time>2000-01-01T01:40:03.000Z</time>
      </trkpt>
      <trkpt lat="45.80041" lon="6.51459">
        <ele>1215</ele>
        <time>2000-01-01T01:40:13.000Z</time>
      </trkpt>
      <trkpt lat="45.80051" lon="6.51468">
        <ele>1221.6</ele>
        <time>2000-01-01T01:40:23.000Z</time>
      </trkpt>
      <trkpt lat="45.80068" lon="6.51488">
        <ele>1216</ele>
        <time>2000-01-01T01:40:33.000Z</time>
      </trkpt>
      <trkpt lat="45.8008" lon="6.51508">
        <ele>1223.1</ele>
        <time>2000-01-01T01:40:43.000Z</time>
      </trkpt>
      <trkpt lat="45.80092" lon="6.51528">
        <ele>1220</ele>
        <time>2000-01-01T01:40:53.000Z</time>
      </trkpt>
      <trkpt lat="45.80102" lon="6.51543">
        <ele>1210.5</ele>
        <time>2000-01-01T01:41:03.000Z</time>
      </trkpt>
      <trkpt lat="45.80107" lon="6.51559">
        <ele>1221</ele>
        <time>2000-01-01T01:41:13.000Z</time>
      </trkpt>
      <trkpt lat="45.80114" lon="6.51596">
        <ele>1226</ele>
        <time>2000-01-01T01:41:23.000Z</time>
      </trkpt>
      <trkpt lat="45.80117" lon="6.51638">
        <ele>1229</ele>
        <time>2000-01-01T01:41:33.000Z</time>
      </trkpt>
      <trkpt lat="45.80122" lon="6.5167">
        <ele>1235</ele>
        <time>2000-01-01T01:41:43.000Z</time>
      </trkpt>
      <trkpt lat="45.80125" lon="6.51707">
        <ele>1235</ele>
        <time>2000-01-01T01:41:53.000Z</time>
      </trkpt>
      <trkpt lat="45.80127" lon="6.51744">
        <ele>1234</ele>
        <time>2000-01-01T01:42:03.000Z</time>
      </trkpt>
      <trkpt lat="45.80132" lon="6.51767">
        <ele>1225.8</ele>
        <time>2000-01-01T01:42:13.000Z</time>
      </trkpt>
      <trkpt lat="45.80141" lon="6.51794">
        <ele>1229</ele>
        <time>2000-01-01T01:42:23.000Z</time>
      </trkpt>
      <trkpt lat="45.80149" lon="6.51819">
        <ele>1230</ele>
        <time>2000-01-01T01:42:33.000Z</time>
      </trkpt>
      <trkpt lat="45.80159" lon="6.51845">
        <ele>1225</ele>
        <time>2000-01-01T01:42:43.000Z</time>
      </trkpt>
      <trkpt lat="45.80161" lon="6.51861">
        <ele>1225.6</ele>
        <time>2000-01-01T01:42:53.000Z</time>
      </trkpt>
      <trkpt lat="45.8017" lon="6.51892">
        <ele>1225</ele>
        <time>2000-01-01T01:43:03.000Z</time>
      </trkpt>
      <trkpt lat="45.80181" lon="6.51924">
        <ele>1225</ele>
        <time>2000-01-01T01:43:13.000Z</time>
      </trkpt>
      <trkpt lat="45.8019" lon="6.51948">
        <ele>1204.1</ele>
        <time>2000-01-01T01:43:23.000Z</time>
      </trkpt>
      <trkpt lat="45.80202" lon="6.51971">
        <ele>1207</ele>
        <time>2000-01-01T01:43:33.000Z</time>
      </trkpt>
      <trkpt lat="45.80213" lon="6.51988">
        <ele>1200.1</ele>
        <time>2000-01-01T01:43:43.000Z</time>
      </trkpt>
      <trkpt lat="45.80228" lon="6.52007">
        <ele>1195</ele>
        <time>2000-01-01T01:43:53.000Z</time>
      </trkpt>
      <trkpt lat="45.80236" lon="6.52015">
        <ele>1200.7</ele>
        <time>2000-01-01T01:44:03.000Z</time>
      </trkpt>
      <trkpt lat="45.80244" lon="6.52048">
        <ele>1201</ele>
        <time>2000-01-01T01:44:13.000Z</time>
      </trkpt>
      <trkpt lat="45.8025" lon="6.52083">
        <ele>1208</ele>
        <time>2000-01-01T01:44:23.000Z</time>
      </trkpt>
      <trkpt lat="45.80256" lon="6.52119">
        <ele>1209</ele>
        <time>2000-01-01T01:44:33.000Z</time>
      </trkpt>
      <trkpt lat="45.80261" lon="6.52151">
        <ele>1209</ele>
        <time>2000-01-01T01:44:43.000Z</time>
      </trkpt>
      <trkpt lat="45.80264" lon="6.52183">
        <ele>1209</ele>
        <time>2000-01-01T01:44:53.000Z</time>
      </trkpt>
      <trkpt lat="45.80266" lon="6.52217">
        <ele>1202</ele>
        <time>2000-01-01T01:45:03.000Z</time>
      </trkpt>
      <trkpt lat="45.80268" lon="6.52234">
        <ele>1175.7</ele>
        <time>2000-01-01T01:45:13.000Z</time>
      </trkpt>
      <trkpt lat="45.80261" lon="6.52256">
        <ele>1198</ele>
        <time>2000-01-01T01:45:23.000Z</time>
      </trkpt>
      <trkpt lat="45.80257" lon="6.5228">
        <ele>1172</ele>
        <time>2000-01-01T01:45:33.000Z</time>
      </trkpt>
      <trkpt lat="45.80248" lon="6.52308">
        <ele>1201</ele>
        <time>2000-01-01T01:45:43.000Z</time>
      </trkpt>
      <trkpt lat="45.80242" lon="6.52331">
        <ele>1196.6</ele>
        <time>2000-01-01T01:45:53.000Z</time>
      </trkpt>
      <trkpt lat="45.80237" lon="6.52353">
        <ele>1199</ele>
        <time>2000-01-01T01:46:03.000Z</time>
      </trkpt>
      <trkpt lat="45.80233" lon="6.52377">
        <ele>1198.1</ele>
        <time>2000-01-01T01:46:13.000Z</time>
      </trkpt>
      <trkpt lat="45.8023" lon="6.52395">
        <ele>1197</ele>
        <time>2000-01-01T01:46:23.000Z</time>
      </trkpt>
      <trkpt lat="45.80225" lon="6.52417">
        <ele>1180.2</ele>
        <time>2000-01-01T01:46:33.000Z</time>
      </trkpt>
      <trkpt lat="45.80215" lon="6.52446">
        <ele>1195</ele>
        <time>2000-01-01T01:46:43.000Z</time>
      </trkpt>
      <trkpt lat="45.80207" lon="6.52469">
        <ele>1181.8</ele>
        <time>2000-01-01T01:46:53.000Z</time>
      </trkpt>
      <trkpt lat="45.80197" lon="6.52488">
        <ele>1196</ele>
        <time>2000-01-01T01:47:03.000Z</time>
      </trkpt>
      <trkpt lat="45.80187" lon="6.52506">
        <ele>1173.4</ele>
        <time>2000-01-01T01:47:13.000Z</time>
      </trkpt>
      <trkpt lat="45.80172" lon="6.52525">
        <ele>1198</ele>
        <time>2000-01-01T01:47:23.000Z</time>
      </trkpt>
      <trkpt lat="45.8016" lon="6.52542">
        <ele>1202.3</ele>
        <time>2000-01-01T01:47:33.000Z</time>
      </trkpt>
      <trkpt lat="45.80149" lon="6.52563">
        <ele>1202</ele>
        <time>2000-01-01T01:47:43.000Z</time>
      </trkpt>
      <trkpt lat="45.80144" lon="6.52575">
        <ele>1194.5</ele>
        <time>2000-01-01T01:47:53.000Z</time>
      </trkpt>
      <trkpt lat="45.80137" lon="6.52594">
        <ele>1207</ele>
        <time>2000-01-01T01:48:03.000Z</time>
      </trkpt>
      <trkpt lat="45.80128" lon="6.52614">
        <ele>1182.8</ele>
        <time>2000-01-01T01:48:13.000Z</time>
      </trkpt>
      <trkpt lat="45.8012" lon="6.52628">
        <ele>1202</ele>
        <time>2000-01-01T01:48:23.000Z</time>
      </trkpt>
      <trkpt lat="45.80111" lon="6.5264">
        <ele>1185.9</ele>
        <time>2000-01-01T01:48:33.000Z</time>
      </trkpt>
      <trkpt lat="45.80102" lon="6.52653">
        <ele>1212</ele>
        <time>2000-01-01T01:48:43.000Z</time>
      </trkpt>
      <trkpt lat="45.80093" lon="6.52662">
        <ele>1195.4</ele>
        <time>2000-01-01T01:48:53.000Z</time>
      </trkpt>
      <trkpt lat="45.80084" lon="6.52679">
        <ele>1202</ele>
        <time>2000-01-01T01:49:03.000Z</time>
      </trkpt>
      <trkpt lat="45.80077" lon="6.52694">
        <ele>1212.7</ele>
        <time>2000-01-01T01:49:13.000Z</time>
      </trkpt>
      <trkpt lat="45.8007" lon="6.5272">
        <ele>1207</ele>
        <time>2000-01-01T01:49:23.000Z</time>
      </trkpt>
      <trkpt lat="45.80064" lon="6.5274">
        <ele>1203.3</ele>
        <time>2000-01-01T01:49:33.000Z</time>
      </trkpt>
      <trkpt lat="45.80059" lon="6.52758">
        <ele>1196</ele>
        <time>2000-01-01T01:49:43.000Z</time>
      </trkpt>
      <trkpt lat="45.80056" lon="6.52784">
        <ele>1194</ele>
        <time>2000-01-01T01:49:53.000Z</time>
      </trkpt>
      <trkpt lat="45.8005" lon="6.52804">
        <ele>1197</ele>
        <time>2000-01-01T01:50:03.000Z</time>
      </trkpt>
      <trkpt lat="45.80048" lon="6.5283">
        <ele>1190.9</ele>
        <time>2000-01-01T01:50:13.000Z</time>
      </trkpt>
      <trkpt lat="45.80048" lon="6.52851">
        <ele>1193</ele>
        <time>2000-01-01T01:50:23.000Z</time>
      </trkpt>
      <trkpt lat="45.80046" lon="6.5288">
        <ele>1190</ele>
        <time>2000-01-01T01:50:33.000Z</time>
      </trkpt>
      <trkpt lat="45.80043" lon="6.52907">
        <ele>1190</ele>
        <time>2000-01-01T01:50:43.000Z</time>
      </trkpt>
      <trkpt lat="45.80044" lon="6.52932">
        <ele>1178</ele>
        <time>2000-01-01T01:50:53.000Z</time>
      </trkpt>
      <trkpt lat="45.80044" lon="6.52963">
        <ele>1186</ele>
        <time>2000-01-01T01:51:03.000Z</time>
      </trkpt>
      <trkpt lat="45.80047" lon="6.52981">
        <ele>1176.6</ele>
        <time>2000-01-01T01:51:13.000Z</time>
      </trkpt>
      <trkpt lat="45.80049" lon="6.53011">
        <ele>1182</ele>
        <time>2000-01-01T01:51:23.000Z</time>
      </trkpt>
      <trkpt lat="45.80051" lon="6.53036">
        <ele>1178.6</ele>
        <time>2000-01-01T01:51:33.000Z</time>
      </trkpt>
      <trkpt lat="45.80051" lon="6.53063">
        <ele>1185</ele>
        <time>2000-01-01T01:51:43.000Z</time>
      </trkpt>
      <trkpt lat="45.80049" lon="6.53084">
        <ele>1182</ele>
        <time>2000-01-01T01:51:53.000Z</time>
      </trkpt>
      <trkpt lat="45.80047" lon="6.53104">
        <ele>1182</ele>
        <time>2000-01-01T01:52:03.000Z</time>
      </trkpt>
      <trkpt lat="45.80045" lon="6.53122">
        <ele>1184.1</ele>
        <time>2000-01-01T01:52:13.000Z</time>
      </trkpt>
      <trkpt lat="45.80043" lon="6.53133">
        <ele>1179</ele>
        <time>2000-01-01T01:52:23.000Z</time>
      </trkpt>
      <trkpt lat="45.80033" lon="6.53156">
        <ele>1179</ele>
        <time>2000-01-01T01:52:33.000Z</time>
      </trkpt>
      <trkpt lat="45.80019" lon="6.53178">
        <ele>1194</ele>
        <time>2000-01-01T01:52:43.000Z</time>
      </trkpt>
      <trkpt lat="45.80014" lon="6.53192">
        <ele>1190.7</ele>
        <time>2000-01-01T01:52:53.000Z</time>
      </trkpt>
      <trkpt lat="45.80007" lon="6.5321">
        <ele>1201</ele>
        <time>2000-01-01T01:53:03.000Z</time>
      </trkpt>
      <trkpt lat="45.8" lon="6.53232">
        <ele>1215.6</ele>
        <time>2000-01-01T01:53:13.000Z</time>
      </trkpt>
      <trkpt lat="45.79995" lon="6.53253">
        <ele>1202</ele>
        <time>2000-01-01T01:53:23.000Z</time>
      </trkpt>
      <trkpt lat="45.79984" lon="6.5328">
        <ele>1208</ele>
        <time>2000-01-01T01:53:33.000Z</time>
      </trkpt>
      <trkpt lat="45.7998" lon="6.53295">
        <ele>1212</ele>
        <time>2000-01-01T01:53:43.000Z</time>
      </trkpt>
      <trkpt lat="45.7997" lon="6.53308">
        <ele>1214</ele>
        <time>2000-01-01T01:53:53.000Z</time>
      </trkpt>
      <trkpt lat="45.79958" lon="6.53326">
        <ele>1215</ele>
        <time>2000-01-01T01:54:03.000Z</time>
      </trkpt>
      <trkpt lat="45.79945" lon="6.5334">
        <ele>1221</ele>
        <time>2000-01-01T01:54:13.000Z</time>
      </trkpt>
      <trkpt lat="45.79932" lon="6.53354">
        <ele>1207.7</ele>
        <time>2000-01-01T01:54:23.000Z</time>
      </trkpt>
      <trkpt lat="45.79918" lon="6.53368">
        <ele>1221</ele>
        <time>2000-01-01T01:54:33.000Z</time>
      </trkpt>
      <trkpt lat="45.799" lon="6.53383">
        <ele>1222</ele>
        <time>2000-01-01T01:54:43.000Z</time>
      </trkpt>
      <trkpt lat="45.79888" lon="6.53391">
        <ele>1223.4</ele>
        <time>2000-01-01T01:54:53.000Z</time>
      </trkpt>
      <trkpt lat="45.79872" lon="6.53398">
        <ele>1236</ele>
        <time>2000-01-01T01:55:03.000Z</time>
      </trkpt>
      <trkpt lat="45.79859" lon="6.53396">
        <ele>1227.6</ele>
        <time>2000-01-01T01:55:13.000Z</time>
      </trkpt>
      <trkpt lat="45.79847" lon="6.53396">
        <ele>1250</ele>
        <time>2000-01-01T01:55:23.000Z</time>
      </trkpt>
      <trkpt lat="45.79846" lon="6.53387">
        <ele>1230.6</ele>
        <time>2000-01-01T01:55:33.000Z</time>
      </trkpt>
      <trkpt lat="45.79844" lon="6.53378">
        <ele>1233.6</ele>
        <time>2000-01-01T01:55:43.000Z</time>
      </trkpt>
      <trkpt lat="45.79847" lon="6.53365">
        <ele>1255</ele>
        <time>2000-01-01T01:55:53.000Z</time>
      </trkpt>
      <trkpt lat="45.79854" lon="6.5335">
        <ele>1242.2</ele>
        <time>2000-01-01T01:56:03.000Z</time>
      </trkpt>
      <trkpt lat="45.79862" lon="6.5334">
        <ele>1257</ele>
        <time>2000-01-01T01:56:13.000Z</time>
      </trkpt>
      <trkpt lat="45.79873" lon="6.53322">
        <ele>1256.6</ele>
        <time>2000-01-01T01:56:23.000Z</time>
      </trkpt>
      <trkpt lat="45.79881" lon="6.5331">
        <ele>1260</ele>
        <time>2000-01-01T01:56:33.000Z</time>
      </trkpt>
      <trkpt lat="45.79886" lon="6.53298">
        <ele>1256</ele>
        <time>2000-01-01T01:56:43.000Z</time>
      </trkpt>
      <trkpt lat="45.79895" lon="6.53286">
        <ele>1260</ele>
        <time>2000-01-01T01:56:53.000Z</time>
      </trkpt>
      <trkpt lat="45.799" lon="6.53276">
        <ele>1255.9</ele>
        <time>2000-01-01T01:57:03.000Z</time>
      </trkpt>
      <trkpt lat="45.79907" lon="6.53264">
        <ele>1254.8</ele>
        <time>2000-01-01T01:57:13.000Z</time>
      </trkpt>
      <trkpt lat="45.79914" lon="6.53253">
        <ele>1260</ele>
        <time>2000-01-01T01:57:23.000Z</time>
      </trkpt>
      <trkpt lat="45.79915" lon="6.53247">
        <ele>1253.8</ele>
        <time>2000-01-01T01:57:33.000Z</time>
      </trkpt>
      <trkpt lat="45.79919" lon="6.53234">
        <ele>1242.2</ele>
        <time>2000-01-01T01:57:43.000Z</time>
      </trkpt>
      <trkpt lat="45.7992" lon="6.53224">
        <ele>1261</ele>
        <time>2000-01-01T01:57:53.000Z</time>
      </trkpt>
      <trkpt lat="45.79917" lon="6.53205">
        <ele>1240.4</ele>
        <time>2000-01-01T01:58:03.000Z</time>
      </trkpt>
      <trkpt lat="45.79913" lon="6.53195">
        <ele>1261</ele>
        <time>2000-01-01T01:58:13.000Z</time>
      </trkpt>
      <trkpt lat="45.79902" lon="6.53176">
        <ele>1266.5</ele>
        <time>2000-01-01T01:58:23.000Z</time>
      </trkpt>
      <trkpt lat="45.79895" lon="6.53172">
        <ele>1272</ele>
        <time>2000-01-01T01:58:33.000Z</time>
      </trkpt>
      <trkpt lat="45.7988" lon="6.53165">
        <ele>1272.5</ele>
        <time>2000-01-01T01:58:43.000Z</time>
      </trkpt>
      <trkpt lat="45.79866" lon="6.53168">
        <ele>1281</ele>
        <time>2000-01-01T01:58:53.000Z</time>
      </trkpt>
      <trkpt lat="45.79857" lon="6.53173">
        <ele>1277.6</ele>
        <time>2000-01-01T01:59:03.000Z</time>
      </trkpt>
      <trkpt lat="45.79854" lon="6.53185">
        <ele>1277.3</ele>
        <time>2000-01-01T01:59:13.000Z</time>
      </trkpt>
      <trkpt lat="45.7985" lon="6.53197">
        <ele>1292</ele>
        <time>2000-01-01T01:59:23.000Z</time>
      </trkpt>
      <trkpt lat="45.79847" lon="6.53205">
        <ele>1276.9</ele>
        <time>2000-01-01T01:59:33.000Z</time>
      </trkpt>
      <trkpt lat="45.79841" lon="6.53215">
        <ele>1277.6</ele>
        <time>2000-01-01T01:59:43.000Z</time>
      </trkpt>
      <trkpt lat="45.79839" lon="6.53231">
        <ele>1296</ele>
        <time>2000-01-01T01:59:53.000Z</time>
      </trkpt>
      <trkpt lat="45.79833" lon="6.53256">
        <ele>1288.8</ele>
        <time>2000-01-01T02:00:03.000Z</time>
      </trkpt>
      <trkpt lat="45.79826" lon="6.53275">
        <ele>1294</ele>
        <time>2000-01-01T02:00:13.000Z</time>
      </trkpt>
      <trkpt lat="45.79819" lon="6.5329">
        <ele>1288.4</ele>
        <time>2000-01-01T02:00:23.000Z</time>
      </trkpt>
      <trkpt lat="45.79812" lon="6.53302">
        <ele>1293</ele>
        <time>2000-01-01T02:00:33.000Z</time>
      </trkpt>
      <trkpt lat="45.79804" lon="6.53316">
        <ele>1286.6</ele>
        <time>2000-01-01T02:00:43.000Z</time>
      </trkpt>
      <trkpt lat="45.79794" lon="6.53324">
        <ele>1289</ele>
        <time>2000-01-01T02:00:53.000Z</time>
      </trkpt>
      <trkpt lat="45.79773" lon="6.53329">
        <ele>1289</ele>
        <time>2000-01-01T02:01:03.000Z</time>
      </trkpt>
      <trkpt lat="45.79757" lon="6.53328">
        <ele>1296.3</ele>
        <time>2000-01-01T02:01:13.000Z</time>
      </trkpt>
      <trkpt lat="45.79734" lon="6.53329">
        <ele>1302</ele>
        <time>2000-01-01T02:01:23.000Z</time>
      </trkpt>
      <trkpt lat="45.7972" lon="6.53334">
        <ele>1297.6</ele>
        <time>2000-01-01T02:01:33.000Z</time>
      </trkpt>
      <trkpt lat="45.79705" lon="6.53338">
        <ele>1318</ele>
        <time>2000-01-01T02:01:43.000Z</time>
      </trkpt>
      <trkpt lat="45.79698" lon="6.53343">
        <ele>1301.9</ele>
        <time>2000-01-01T02:01:53.000Z</time>
      </trkpt>
      <trkpt lat="45.79685" lon="6.53359">
        <ele>1321</ele>
        <time>2000-01-01T02:02:03.000Z</time>
      </trkpt>
      <trkpt lat="45.79674" lon="6.53376">
        <ele>1297.3</ele>
        <time>2000-01-01T02:02:13.000Z</time>
      </trkpt>
      <trkpt lat="45.79659" lon="6.53398">
        <ele>1313</ele>
        <time>2000-01-01T02:02:23.000Z</time>
      </trkpt>
      <trkpt lat="45.79648" lon="6.53415">
        <ele>1308.9</ele>
        <time>2000-01-01T02:02:33.000Z</time>
      </trkpt>
      <trkpt lat="45.79632" lon="6.53443">
        <ele>1305</ele>
        <time>2000-01-01T02:02:43.000Z</time>
      </trkpt>
      <trkpt lat="45.79617" lon="6.53465">
        <ele>1304</ele>
        <time>2000-01-01T02:02:53.000Z</time>
      </trkpt>
      <trkpt lat="45.79601" lon="6.53493">
        <ele>1300</ele>
        <time>2000-01-01T02:03:03.000Z</time>
      </trkpt>
      <trkpt lat="45.79584" lon="6.53517">
        <ele>1297</ele>
        <time>2000-01-01T02:03:13.000Z</time>
      </trkpt>
      <trkpt lat="45.79572" lon="6.53536">
        <ele>1278.4</ele>
        <time>2000-01-01T02:03:23.000Z</time>
      </trkpt>
      <trkpt lat="45.79562" lon="6.53556">
        <ele>1290</ele>
        <time>2000-01-01T02:03:33.000Z</time>
      </trkpt>
      <trkpt lat="45.79554" lon="6.53568">
        <ele>1271.5</ele>
        <time>2000-01-01T02:03:43.000Z</time>
      </trkpt>
      <trkpt lat="45.79547" lon="6.5358">
        <ele>1283</ele>
        <time>2000-01-01T02:03:53.000Z</time>
      </trkpt>
      <trkpt lat="45.79535" lon="6.53593">
        <ele>1250.1</ele>
        <time>2000-01-01T02:04:03.000Z</time>
      </trkpt>
      <trkpt lat="45.7953" lon="6.53598">
        <ele>1283</ele>
        <time>2000-01-01T02:04:13.000Z</time>
      </trkpt>
      <trkpt lat="45.79509" lon="6.53613">
        <ele>1283</ele>
        <time>2000-01-01T02:04:23.000Z</time>
      </trkpt>
      <trkpt lat="45.79487" lon="6.53629">
        <ele>1283</ele>
        <time>2000-01-01T02:04:33.000Z</time>
      </trkpt>
      <trkpt lat="45.79467" lon="6.53643">
        <ele>1283</ele>
        <time>2000-01-01T02:04:43.000Z</time>
      </trkpt>
      <trkpt lat="45.79451" lon="6.53654">
        <ele>1259.4</ele>
        <time>2000-01-01T02:04:53.000Z</time>
      </trkpt>
      <trkpt lat="45.79434" lon="6.53662">
        <ele>1272</ele>
        <time>2000-01-01T02:05:03.000Z</time>
      </trkpt>
      <trkpt lat="45.79416" lon="6.53671">
        <ele>1272</ele>
        <time>2000-01-01T02:05:13.000Z</time>
      </trkpt>
      <trkpt lat="45.79397" lon="6.53678">
        <ele>1275</ele>
        <time>2000-01-01T02:05:23.000Z</time>
      </trkpt>
      <trkpt lat="45.79381" lon="6.53684">
        <ele>1251.9</ele>
        <time>2000-01-01T02:05:33.000Z</time>
      </trkpt>
      <trkpt lat="45.79364" lon="6.53683">
        <ele>1282</ele>
        <time>2000-01-01T02:05:43.000Z</time>
      </trkpt>
      <trkpt lat="45.79344" lon="6.53684">
        <ele>1284</ele>
        <time>2000-01-01T02:05:53.000Z</time>
      </trkpt>
      <trkpt lat="45.79329" lon="6.53685">
        <ele>1272.9</ele>
        <time>2000-01-01T02:06:03.000Z</time>
      </trkpt>
      <trkpt lat="45.79311" lon="6.53687">
        <ele>1285</ele>
        <time>2000-01-01T02:06:13.000Z</time>
      </trkpt>
      <trkpt lat="45.79296" lon="6.53691">
        <ele>1272.3</ele>
        <time>2000-01-01T02:06:23.000Z</time>
      </trkpt>
      <trkpt lat="45.79279" lon="6.53694">
        <ele>1287</ele>
        <time>2000-01-01T02:06:33.000Z</time>
      </trkpt>
      <trkpt lat="45.79267" lon="6.53699">
        <ele>1274.7</ele>
        <time>2000-01-01T02:06:43.000Z</time>
      </trkpt>
      <trkpt lat="45.79258" lon="6.53704">
        <ele>1282</ele>
        <time>2000-01-01T02:06:53.000Z</time>
      </trkpt>
      <trkpt lat="45.79246" lon="6.53709">
        <ele>1288</ele>
        <time>2000-01-01T02:07:03.000Z</time>
      </trkpt>
      <trkpt lat="45.79237" lon="6.53712">
        <ele>1277</ele>
        <time>2000-01-01T02:07:13.000Z</time>
      </trkpt>
      <trkpt lat="45.79226" lon="6.53724">
        <ele>1285.5</ele>
        <time>2000-01-01T02:07:23.000Z</time>
      </trkpt>
      <trkpt lat="45.79214" lon="6.53741">
        <ele>1271</ele>
        <time>2000-01-01T02:07:33.000Z</time>
      </trkpt>
      <trkpt lat="45.79207" lon="6.53749">
        <ele>1286.1</ele>
        <time>2000-01-01T02:07:43.000Z</time>
      </trkpt>
      <trkpt lat="45.79202" lon="6.53754">
        <ele>1266.6</ele>
        <time>2000-01-01T02:07:53.000Z</time>
      </trkpt>
      <trkpt lat="45.79201" lon="6.53757">
        <ele>1266.6</ele>
        <time>2000-01-01T02:08:03.000Z</time>
      </trkpt>
      <trkpt lat="45.79192" lon="6.53764">
        <ele>1266</ele>
        <time>2000-01-01T02:08:13.000Z</time>
      </trkpt>
      <trkpt lat="45.79186" lon="6.53773">
        <ele>1267.9</ele>
        <time>2000-01-01T02:08:23.000Z</time>
      </trkpt>
      <trkpt lat="45.79178" lon="6.53779">
        <ele>1267.4</ele>
        <time>2000-01-01T02:08:33.000Z</time>
      </trkpt>
      <trkpt lat="45.79167" lon="6.53789">
        <ele>1261</ele>
        <time>2000-01-01T02:08:43.000Z</time>
      </trkpt>
      <trkpt lat="45.79162" lon="6.53796">
        <ele>1283.1</ele>
        <time>2000-01-01T02:08:53.000Z</time>
      </trkpt>
      <trkpt lat="45.79158" lon="6.53806">
        <ele>1279.4</ele>
        <time>2000-01-01T02:09:03.000Z</time>
      </trkpt>
      <trkpt lat="45.79151" lon="6.53821">
        <ele>1264</ele>
        <time>2000-01-01T02:09:13.000Z</time>
      </trkpt>
      <trkpt lat="45.79139" lon="6.53839">
        <ele>1265</ele>
        <time>2000-01-01T02:09:23.000Z</time>
      </trkpt>
      <trkpt lat="45.79128" lon="6.53856">
        <ele>1267</ele>
        <time>2000-01-01T02:09:33.000Z</time>
      </trkpt>
      <trkpt lat="45.79115" lon="6.53873">
        <ele>1269.5</ele>
        <time>2000-01-01T02:09:43.000Z</time>
      </trkpt>
      <trkpt lat="45.79097" lon="6.53889">
        <ele>1269</ele>
        <time>2000-01-01T02:09:53.000Z</time>
      </trkpt>
      <trkpt lat="45.7909" lon="6.539">
        <ele>1268.9</ele>
        <time>2000-01-01T02:10:03.000Z</time>
      </trkpt>
      <trkpt lat="45.79071" lon="6.53907">
        <ele>1269</ele>
        <time>2000-01-01T02:10:13.000Z</time>
      </trkpt>
      <trkpt lat="45.79057" lon="6.53916">
        <ele>1289.2</ele>
        <time>2000-01-01T02:10:23.000Z</time>
      </trkpt>
      <trkpt lat="45.79036" lon="6.53927">
        <ele>1289</ele>
        <time>2000-01-01T02:10:33.000Z</time>
      </trkpt>
      <trkpt lat="45.79014" lon="6.53937">
        <ele>1286</ele>
        <time>2000-01-01T02:10:43.000Z</time>
      </trkpt>
      <trkpt lat="45.7899" lon="6.53951">
        <ele>1287</ele>
        <time>2000-01-01T02:10:53.000Z</time>
      </trkpt>
      <trkpt lat="45.78969" lon="6.53965">
        <ele>1288</ele>
        <time>2000-01-01T02:11:03.000Z</time>
      </trkpt>
      <trkpt lat="45.78947" lon="6.53979">
        <ele>1303</ele>
        <time>2000-01-01T02:11:13.000Z</time>
      </trkpt>
      <trkpt lat="45.78931" lon="6.53989">
        <ele>1302</ele>
        <time>2000-01-01T02:11:23.000Z</time>
      </trkpt>
      <trkpt lat="45.7892" lon="6.53997">
        <ele>1308</ele>
        <time>2000-01-01T02:11:33.000Z</time>
      </trkpt>
      <trkpt lat="45.78909" lon="6.5401">
        <ele>1303.2</ele>
        <time>2000-01-01T02:11:43.000Z</time>
      </trkpt>
      <trkpt lat="45.789" lon="6.54019">
        <ele>1325</ele>
        <time>2000-01-01T02:11:53.000Z</time>
      </trkpt>
      <trkpt lat="45.78888" lon="6.54034">
        <ele>1304</ele>
        <time>2000-01-01T02:12:03.000Z</time>
      </trkpt>
      <trkpt lat="45.78876" lon="6.54049">
        <ele>1316</ele>
        <time>2000-01-01T02:12:13.000Z</time>
      </trkpt>
      <trkpt lat="45.78869" lon="6.54061">
        <ele>1303.5</ele>
        <time>2000-01-01T02:12:23.000Z</time>
      </trkpt>
      <trkpt lat="45.78861" lon="6.5407">
        <ele>1314</ele>
        <time>2000-01-01T02:12:33.000Z</time>
      </trkpt>
      <trkpt lat="45.78845" lon="6.54091">
        <ele>1312</ele>
        <time>2000-01-01T02:12:43.000Z</time>
      </trkpt>
      <trkpt lat="45.78829" lon="6.54106">
        <ele>1316</ele>
        <time>2000-01-01T02:12:53.000Z</time>
      </trkpt>
      <trkpt lat="45.78818" lon="6.54119">
        <ele>1310.2</ele>
        <time>2000-01-01T02:13:03.000Z</time>
      </trkpt>
      <trkpt lat="45.78811" lon="6.54124">
        <ele>1320</ele>
        <time>2000-01-01T02:13:13.000Z</time>
      </trkpt>
      <trkpt lat="45.78801" lon="6.54131">
        <ele>1311.4</ele>
        <time>2000-01-01T02:13:23.000Z</time>
      </trkpt>
      <trkpt lat="45.78792" lon="6.54141">
        <ele>1322</ele>
        <time>2000-01-01T02:13:33.000Z</time>
      </trkpt>
      <trkpt lat="45.78782" lon="6.54144">
        <ele>1313.5</ele>
        <time>2000-01-01T02:13:43.000Z</time>
      </trkpt>
      <trkpt lat="45.78768" lon="6.54154">
        <ele>1318</ele>
        <time>2000-01-01T02:13:53.000Z</time>
      </trkpt>
      <trkpt lat="45.78756" lon="6.54161">
        <ele>1315.6</ele>
        <time>2000-01-01T02:14:03.000Z</time>
      </trkpt>
      <trkpt lat="45.78747" lon="6.54164">
        <ele>1317</ele>
        <time>2000-01-01T02:14:13.000Z</time>
      </trkpt>
      <trkpt lat="45.78733" lon="6.54168">
        <ele>1315.4</ele>
        <time>2000-01-01T02:14:23.000Z</time>
      </trkpt>
      <trkpt lat="45.78722" lon="6.54172">
        <ele>1317</ele>
        <time>2000-01-01T02:14:33.000Z</time>
      </trkpt>
      <trkpt lat="45.78712" lon="6.54174">
        <ele>1316.8</ele>
        <time>2000-01-01T02:14:43.000Z</time>
      </trkpt>
      <trkpt lat="45.78697" lon="6.54176">
        <ele>1324</ele>
        <time>2000-01-01T02:14:53.000Z</time>
      </trkpt>
      <trkpt lat="45.78684" lon="6.54177">
        <ele>1323</ele>
        <time>2000-01-01T02:15:03.000Z</time>
      </trkpt>
      <trkpt lat="45.78667" lon="6.5418">
        <ele>1325</ele>
        <time>2000-01-01T02:15:13.000Z</time>
      </trkpt>
      <trkpt lat="45.78652" lon="6.5418">
        <ele>1336</ele>
        <time>2000-01-01T02:15:23.000Z</time>
      </trkpt>
      <trkpt lat="45.78642" lon="6.54181">
        <ele>1337</ele>
        <time>2000-01-01T02:15:33.000Z</time>
      </trkpt>
      <trkpt lat="45.78628" lon="6.5418">
        <ele>1340.1</ele>
        <time>2000-01-01T02:15:43.000Z</time>
      </trkpt>
      <trkpt lat="45.78641" lon="6.5417">
        <ele>1337</ele>
        <time>2000-01-01T02:15:53.000Z</time>
      </trkpt>
      <trkpt lat="45.78657" lon="6.54155">
        <ele>1353.9</ele>
        <time>2000-01-01T02:16:03.000Z</time>
      </trkpt>
      <trkpt lat="45.78674" lon="6.54139">
        <ele>1350</ele>
        <time>2000-01-01T02:16:13.000Z</time>
      </trkpt>
      <trkpt lat="45.78689" lon="6.54124">
        <ele>1349</ele>
        <time>2000-01-01T02:16:23.000Z</time>
      </trkpt>
      <trkpt lat="45.78703" lon="6.54112">
        <ele>1348.7</ele>
        <time>2000-01-01T02:16:33.000Z</time>
      </trkpt>
      <trkpt lat="45.7871" lon="6.54105">
        <ele>1349</ele>
        <time>2000-01-01T02:16:43.000Z</time>
      </trkpt>
      <trkpt lat="45.78727" lon="6.54084">
        <ele>1355</ele>
        <time>2000-01-01T02:16:53.000Z</time>
      </trkpt>
      <trkpt lat="45.7874" lon="6.54067">
        <ele>1365.9</ele>
        <time>2000-01-01T02:17:03.000Z</time>
      </trkpt>
      <trkpt lat="45.78748" lon="6.54051">
        <ele>1362</ele>
        <time>2000-01-01T02:17:13.000Z</time>
      </trkpt>
      <trkpt lat="45.78754" lon="6.54041">
        <ele>1350.7</ele>
        <time>2000-01-01T02:17:23.000Z</time>
      </trkpt>
      <trkpt lat="45.78763" lon="6.54018">
        <ele>1375</ele>
        <time>2000-01-01T02:17:33.000Z</time>
      </trkpt>
      <trkpt lat="45.7877" lon="6.54002">
        <ele>1360</ele>
        <time>2000-01-01T02:17:43.000Z</time>
      </trkpt>
      <trkpt lat="45.78776" lon="6.53988">
        <ele>1388</ele>
        <time>2000-01-01T02:17:53.000Z</time>
      </trkpt>
      <trkpt lat="45.78784" lon="6.53961">
        <ele>1388</ele>
        <time>2000-01-01T02:18:03.000Z</time>
      </trkpt>
      <trkpt lat="45.78789" lon="6.53946">
        <ele>1377</ele>
        <time>2000-01-01T02:18:13.000Z</time>
      </trkpt>
      <trkpt lat="45.7878" lon="6.53956">
        <ele>1395</ele>
        <time>2000-01-01T02:18:23.000Z</time>
      </trkpt>
      <trkpt lat="45.78771" lon="6.53972">
        <ele>1376.7</ele>
        <time>2000-01-01T02:18:33.000Z</time>
      </trkpt>
      <trkpt lat="45.78762" lon="6.53985">
        <ele>1392</ele>
        <time>2000-01-01T02:18:43.000Z</time>
      </trkpt>
      <trkpt lat="45.78755" lon="6.53995">
        <ele>1379.2</ele>
        <time>2000-01-01T02:18:53.000Z</time>
      </trkpt>
      <trkpt lat="45.78746" lon="6.54006">
        <ele>1390</ele>
        <time>2000-01-01T02:19:03.000Z</time>
      </trkpt>
      <trkpt lat="45.78738" lon="6.54013">
        <ele>1382</ele>
        <time>2000-01-01T02:19:13.000Z</time>
      </trkpt>
      <trkpt lat="45.78728" lon="6.54023">
        <ele>1393</ele>
        <time>2000-01-01T02:19:23.000Z</time>
      </trkpt>
      <trkpt lat="45.78717" lon="6.54033">
        <ele>1382.7</ele>
        <time>2000-01-01T02:19:33.000Z</time>
      </trkpt>
      <trkpt lat="45.78705" lon="6.54042">
        <ele>1391</ele>
        <time>2000-01-01T02:19:43.000Z</time>
      </trkpt>
      <trkpt lat="45.78692" lon="6.54051">
        <ele>1383.9</ele>
        <time>2000-01-01T02:19:53.000Z</time>
      </trkpt>
      <trkpt lat="45.78685" lon="6.54058">
        <ele>1392</ele>
        <time>2000-01-01T02:20:03.000Z</time>
      </trkpt>
      <trkpt lat="45.78671" lon="6.54075">
        <ele>1381.2</ele>
        <time>2000-01-01T02:20:13.000Z</time>
      </trkpt>
      <trkpt lat="45.78656" lon="6.54093">
        <ele>1386</ele>
        <time>2000-01-01T02:20:23.000Z</time>
      </trkpt>
      <trkpt lat="45.78646" lon="6.54104">
        <ele>1376.9</ele>
        <time>2000-01-01T02:20:33.000Z</time>
      </trkpt>
      <trkpt lat="45.78634" lon="6.54121">
        <ele>1381</ele>
        <time>2000-01-01T02:20:43.000Z</time>
      </trkpt>
      <trkpt lat="45.78621" lon="6.54135">
        <ele>1373.8</ele>
        <time>2000-01-01T02:20:53.000Z</time>
      </trkpt>
      <trkpt lat="45.78604" lon="6.54154">
        <ele>1380</ele>
        <time>2000-01-01T02:21:03.000Z</time>
      </trkpt>
      <trkpt lat="45.78591" lon="6.54166">
        <ele>1371.9</ele>
        <time>2000-01-01T02:21:13.000Z</time>
      </trkpt>
      <trkpt lat="45.78574" lon="6.54178">
        <ele>1377</ele>
        <time>2000-01-01T02:21:23.000Z</time>
      </trkpt>
      <trkpt lat="45.78562" lon="6.54183">
        <ele>1359.3</ele>
        <time>2000-01-01T02:21:33.000Z</time>
      </trkpt>
      <trkpt lat="45.78545" lon="6.54191">
        <ele>1371</ele>
        <time>2000-01-01T02:21:43.000Z</time>
      </trkpt>
      <trkpt lat="45.78508" lon="6.54197">
        <ele>1367</ele>
        <time>2000-01-01T02:21:53.000Z</time>
      </trkpt>
      <trkpt lat="45.78482" lon="6.54166">
        <ele>1370</ele>
        <time>2000-01-01T02:22:03.000Z</time>
      </trkpt>
      <trkpt lat="45.78463" lon="6.54106">
        <ele>1368</ele>
        <time>2000-01-01T02:22:13.000Z</time>
      </trkpt>
      <trkpt lat="45.78448" lon="6.54061">
        <ele>1366</ele>
        <time>2000-01-01T02:22:23.000Z</time>
      </trkpt>
      <trkpt lat="45.78437" lon="6.54031">
        <ele>1368</ele>
        <time>2000-01-01T02:22:33.000Z</time>
      </trkpt>
      <trkpt lat="45.78425" lon="6.53999">
        <ele>1370</ele>
        <time>2000-01-01T02:22:43.000Z</time>
      </trkpt>
      <trkpt lat="45.78416" lon="6.53963">
        <ele>1370</ele>
        <time>2000-01-01T02:22:53.000Z</time>
      </trkpt>
      <trkpt lat="45.78404" lon="6.53916">
        <ele>1369</ele>
        <time>2000-01-01T02:23:03.000Z</time>
      </trkpt>
      <trkpt lat="45.78399" lon="6.53882">
        <ele>1368</ele>
        <time>2000-01-01T02:23:13.000Z</time>
      </trkpt>
      <trkpt lat="45.78395" lon="6.53825">
        <ele>1368</ele>
        <time>2000-01-01T02:23:23.000Z</time>
      </trkpt>
      <trkpt lat="45.78397" lon="6.53789">
        <ele>1369</ele>
        <time>2000-01-01T02:23:33.000Z</time>
      </trkpt>
      <trkpt lat="45.78407" lon="6.53815">
        <ele>1371</ele>
        <time>2000-01-01T02:23:43.000Z</time>
      </trkpt>
      <trkpt lat="45.7842" lon="6.53801">
        <ele>1417.2</ele>
        <time>2000-01-01T02:23:53.000Z</time>
      </trkpt>
      <trkpt lat="45.78426" lon="6.53801">
        <ele>1381</ele>
        <time>2000-01-01T02:24:03.000Z</time>
      </trkpt>
      <trkpt lat="45.78426" lon="6.53788">
        <ele>1420.4</ele>
        <time>2000-01-01T02:24:13.000Z</time>
      </trkpt>
      <trkpt lat="45.78426" lon="6.53768">
        <ele>1382</ele>
        <time>2000-01-01T02:24:23.000Z</time>
      </trkpt>
      <trkpt lat="45.78426" lon="6.53748">
        <ele>1416.9</ele>
        <time>2000-01-01T02:24:33.000Z</time>
      </trkpt>
      <trkpt lat="45.78427" lon="6.53719">
        <ele>1382</ele>
        <time>2000-01-01T02:24:43.000Z</time>
      </trkpt>
      <trkpt lat="45.78428" lon="6.53688">
        <ele>1385</ele>
        <time>2000-01-01T02:24:53.000Z</time>
      </trkpt>
      <trkpt lat="45.78428" lon="6.53656">
        <ele>1390</ele>
        <time>2000-01-01T02:25:03.000Z</time>
      </trkpt>
      <trkpt lat="45.78428" lon="6.53623">
        <ele>1391</ele>
        <time>2000-01-01T02:25:13.000Z</time>
      </trkpt>
      <trkpt lat="45.78427" lon="6.53589">
        <ele>1394</ele>
        <time>2000-01-01T02:25:23.000Z</time>
      </trkpt>
      <trkpt lat="45.78423" lon="6.5356">
        <ele>1399</ele>
        <time>2000-01-01T02:25:33.000Z</time>
      </trkpt>
      <trkpt lat="45.78423" lon="6.53533">
        <ele>1403</ele>
        <time>2000-01-01T02:25:43.000Z</time>
      </trkpt>
      <trkpt lat="45.78417" lon="6.53507">
        <ele>1407</ele>
        <time>2000-01-01T02:25:53.000Z</time>
      </trkpt>
      <trkpt lat="45.78413" lon="6.53482">
        <ele>1426</ele>
        <time>2000-01-01T02:26:03.000Z</time>
      </trkpt>
      <trkpt lat="45.78409" lon="6.53452">
        <ele>1407</ele>
        <time>2000-01-01T02:26:13.000Z</time>
      </trkpt>
      <trkpt lat="45.78404" lon="6.53426">
        <ele>1433.9</ele>
        <time>2000-01-01T02:26:23.000Z</time>
      </trkpt>
      <trkpt lat="45.78395" lon="6.53396">
        <ele>1415</ele>
        <time>2000-01-01T02:26:33.000Z</time>
      </trkpt>
      <trkpt lat="45.78387" lon="6.53373">
        <ele>1443.6</ele>
        <time>2000-01-01T02:26:43.000Z</time>
      </trkpt>
      <trkpt lat="45.78375" lon="6.53351">
        <ele>1423</ele>
        <time>2000-01-01T02:26:53.000Z</time>
      </trkpt>
      <trkpt lat="45.7836" lon="6.53328">
        <ele>1430</ele>
        <time>2000-01-01T02:27:03.000Z</time>
      </trkpt>
      <trkpt lat="45.78353" lon="6.53323">
        <ele>1454.1</ele>
        <time>2000-01-01T02:27:13.000Z</time>
      </trkpt>
      <trkpt lat="45.78343" lon="6.53314">
        <ele>1431</ele>
        <time>2000-01-01T02:27:23.000Z</time>
      </trkpt>
      <trkpt lat="45.78335" lon="6.53303">
        <ele>1456.5</ele>
        <time>2000-01-01T02:27:33.000Z</time>
      </trkpt>
      <trkpt lat="45.78321" lon="6.5329">
        <ele>1435</ele>
        <time>2000-01-01T02:27:43.000Z</time>
      </trkpt>
      <trkpt lat="45.78313" lon="6.53271">
        <ele>1447.9</ele>
        <time>2000-01-01T02:27:53.000Z</time>
      </trkpt>
      <trkpt lat="45.783" lon="6.5326">
        <ele>1440</ele>
        <time>2000-01-01T02:28:03.000Z</time>
      </trkpt>
      <trkpt lat="45.78306" lon="6.53247">
        <ele>1458.8</ele>
        <time>2000-01-01T02:28:13.000Z</time>
      </trkpt>
      <trkpt lat="45.78315" lon="6.53243">
        <ele>1440</ele>
        <time>2000-01-01T02:28:23.000Z</time>
      </trkpt>
      <trkpt lat="45.78325" lon="6.53246">
        <ele>1460.2</ele>
        <time>2000-01-01T02:28:33.000Z</time>
      </trkpt>
      <trkpt lat="45.78334" lon="6.53251">
        <ele>1442</ele>
        <time>2000-01-01T02:28:43.000Z</time>
      </trkpt>
      <trkpt lat="45.78338" lon="6.53257">
        <ele>1461.8</ele>
        <time>2000-01-01T02:28:53.000Z</time>
      </trkpt>
      <trkpt lat="45.78345" lon="6.53257">
        <ele>1463</ele>
        <time>2000-01-01T02:29:03.000Z</time>
      </trkpt>
      <trkpt lat="45.7838" lon="6.53307">
        <ele>1445</ele>
        <time>2000-01-01T02:29:13.000Z</time>
      </trkpt>
      <trkpt lat="45.78394" lon="6.53338">
        <ele>1439</ele>
        <time>2000-01-01T02:29:23.000Z</time>
      </trkpt>
      <trkpt lat="45.78408" lon="6.53361">
        <ele>1442</ele>
        <time>2000-01-01T02:29:33.000Z</time>
      </trkpt>
      <trkpt lat="45.78419" lon="6.53387">
        <ele>1434</ele>
        <time>2000-01-01T02:29:43.000Z</time>
      </trkpt>
      <trkpt lat="45.78431" lon="6.53421">
        <ele>1433</ele>
        <time>2000-01-01T02:29:53.000Z</time>
      </trkpt>
      <trkpt lat="45.78445" lon="6.53467">
        <ele>1433</ele>
        <time>2000-01-01T02:30:03.000Z</time>
      </trkpt>
      <trkpt lat="45.78461" lon="6.53513">
        <ele>1433</ele>
        <time>2000-01-01T02:30:13.000Z</time>
      </trkpt>
      <trkpt lat="45.78471" lon="6.53556">
        <ele>1431</ele>
        <time>2000-01-01T02:30:23.000Z</time>
      </trkpt>
      <trkpt lat="45.78487" lon="6.5359">
        <ele>1441</ele>
        <time>2000-01-01T02:30:33.000Z</time>
      </trkpt>
      <trkpt lat="45.78499" lon="6.53639">
        <ele>1452</ele>
        <time>2000-01-01T02:30:43.000Z</time>
      </trkpt>
      <trkpt lat="45.78513" lon="6.53682">
        <ele>1453</ele>
        <time>2000-01-01T02:30:53.000Z</time>
      </trkpt>
      <trkpt lat="45.78525" lon="6.53719">
        <ele>1461</ele>
        <time>2000-01-01T02:31:03.000Z</time>
      </trkpt>
      <trkpt lat="45.78539" lon="6.53748">
        <ele>1464</ele>
        <time>2000-01-01T02:31:13.000Z</time>
      </trkpt>
      <trkpt lat="45.78549" lon="6.53782">
        <ele>1467</ele>
        <time>2000-01-01T02:31:23.000Z</time>
      </trkpt>
      <trkpt lat="45.78559" lon="6.53808">
        <ele>1474</ele>
        <time>2000-01-01T02:31:33.000Z</time>
      </trkpt>
      <trkpt lat="45.78577" lon="6.53822">
        <ele>1482</ele>
        <time>2000-01-01T02:31:43.000Z</time>
      </trkpt>
      <trkpt lat="45.78597" lon="6.53825">
        <ele>1482</ele>
        <time>2000-01-01T02:31:53.000Z</time>
      </trkpt>
      <trkpt lat="45.78613" lon="6.53822">
        <ele>1490</ele>
        <time>2000-01-01T02:32:03.000Z</time>
      </trkpt>
      <trkpt lat="45.78631" lon="6.53793">
        <ele>1487</ele>
        <time>2000-01-01T02:32:13.000Z</time>
      </trkpt>
      <trkpt lat="45.78649" lon="6.53759">
        <ele>1488</ele>
        <time>2000-01-01T02:32:23.000Z</time>
      </trkpt>
      <trkpt lat="45.78667" lon="6.53722">
        <ele>1489</ele>
        <time>2000-01-01T02:32:33.000Z</time>
      </trkpt>
      <trkpt lat="45.78677" lon="6.53685">
        <ele>1489</ele>
        <time>2000-01-01T02:32:43.000Z</time>
      </trkpt>
      <trkpt lat="45.78691" lon="6.53639">
        <ele>1480</ele>
        <time>2000-01-01T02:32:53.000Z</time>
      </trkpt>
      <trkpt lat="45.78701" lon="6.53602">
        <ele>1480</ele>
        <time>2000-01-01T02:33:03.000Z</time>
      </trkpt>
      <trkpt lat="45.78691" lon="6.53584">
        <ele>1492.3</ele>
        <time>2000-01-01T02:33:13.000Z</time>
      </trkpt>
      <trkpt lat="45.78677" lon="6.53559">
        <ele>1493</ele>
        <time>2000-01-01T02:33:23.000Z</time>
      </trkpt>
      <trkpt lat="45.78663" lon="6.53522">
        <ele>1493</ele>
        <time>2000-01-01T02:33:33.000Z</time>
      </trkpt>
      <trkpt lat="45.78645" lon="6.53496">
        <ele>1499</ele>
        <time>2000-01-01T02:33:43.000Z</time>
      </trkpt>
      <trkpt lat="45.78629" lon="6.53467">
        <ele>1502</ele>
        <time>2000-01-01T02:33:53.000Z</time>
      </trkpt>
      <trkpt lat="45.78617" lon="6.53444">
        <ele>1505</ele>
        <time>2000-01-01T02:34:03.000Z</time>
      </trkpt>
      <trkpt lat="45.78595" lon="6.53413">
        <ele>1504</ele>
        <time>2000-01-01T02:34:13.000Z</time>
      </trkpt>
      <trkpt lat="45.78581" lon="6.53384">
        <ele>1507</ele>
        <time>2000-01-01T02:34:23.000Z</time>
      </trkpt>
      <trkpt lat="45.78561" lon="6.53333">
        <ele>1510</ele>
        <time>2000-01-01T02:34:33.000Z</time>
      </trkpt>
      <trkpt lat="45.78549" lon="6.53304">
        <ele>1510</ele>
        <time>2000-01-01T02:34:43.000Z</time>
      </trkpt>
      <trkpt lat="45.78527" lon="6.53267">
        <ele>1510</ele>
        <time>2000-01-01T02:34:53.000Z</time>
      </trkpt>
      <trkpt lat="45.78513" lon="6.53244">
        <ele>1510</ele>
        <time>2000-01-01T02:35:03.000Z</time>
      </trkpt>
      <trkpt lat="45.78511" lon="6.53233">
        <ele>1530.6</ele>
        <time>2000-01-01T02:35:13.000Z</time>
      </trkpt>
      <trkpt lat="45.785" lon="6.53234">
        <ele>1510</ele>
        <time>2000-01-01T02:35:23.000Z</time>
      </trkpt>
      <trkpt lat="45.78487" lon="6.53236">
        <ele>1526.4</ele>
        <time>2000-01-01T02:35:33.000Z</time>
      </trkpt>
      <trkpt lat="45.78472" lon="6.53237">
        <ele>1513</ele>
        <time>2000-01-01T02:35:43.000Z</time>
      </trkpt>
      <trkpt lat="45.78457" lon="6.53234">
        <ele>1521.4</ele>
        <time>2000-01-01T02:35:53.000Z</time>
      </trkpt>
      <trkpt lat="45.78446" lon="6.53223">
        <ele>1516</ele>
        <time>2000-01-01T02:36:03.000Z</time>
      </trkpt>
      <trkpt lat="45.78435" lon="6.5321">
        <ele>1521.2</ele>
        <time>2000-01-01T02:36:13.000Z</time>
      </trkpt>
      <trkpt lat="45.78423" lon="6.53197">
        <ele>1513</ele>
        <time>2000-01-01T02:36:23.000Z</time>
      </trkpt>
      <trkpt lat="45.78414" lon="6.53187">
        <ele>1508.6</ele>
        <time>2000-01-01T02:36:33.000Z</time>
      </trkpt>
      <trkpt lat="45.78403" lon="6.53179">
        <ele>1514</ele>
        <time>2000-01-01T02:36:43.000Z</time>
      </trkpt>
      <trkpt lat="45.78396" lon="6.53157">
        <ele>1520.7</ele>
        <time>2000-01-01T02:36:53.000Z</time>
      </trkpt>
      <trkpt lat="45.78384" lon="6.5315">
        <ele>1513</ele>
        <time>2000-01-01T02:37:03.000Z</time>
      </trkpt>
      <trkpt lat="45.78369" lon="6.53139">
        <ele>1516</ele>
        <time>2000-01-01T02:37:13.000Z</time>
      </trkpt>
      <trkpt lat="45.78355" lon="6.53124">
        <ele>1512</ele>
        <time>2000-01-01T02:37:23.000Z</time>
      </trkpt>
      <trkpt lat="45.78342" lon="6.53114">
        <ele>1516.7</ele>
        <time>2000-01-01T02:37:33.000Z</time>
      </trkpt>
      <trkpt lat="45.78329" lon="6.53104">
        <ele>1512</ele>
        <time>2000-01-01T02:37:43.000Z</time>
      </trkpt>
      <trkpt lat="45.78318" lon="6.53097">
        <ele>1501.6</ele>
        <time>2000-01-01T02:37:53.000Z</time>
      </trkpt>
      <trkpt lat="45.78306" lon="6.53091">
        <ele>1512</ele>
        <time>2000-01-01T02:38:03.000Z</time>
      </trkpt>
      <trkpt lat="45.78297" lon="6.53083">
        <ele>1513</ele>
        <time>2000-01-01T02:38:13.000Z</time>
      </trkpt>
      <trkpt lat="45.78283" lon="6.53073">
        <ele>1506</ele>
        <time>2000-01-01T02:38:23.000Z</time>
      </trkpt>
      <trkpt lat="45.78269" lon="6.53066">
        <ele>1505.9</ele>
        <time>2000-01-01T02:38:33.000Z</time>
      </trkpt>
      <trkpt lat="45.78253" lon="6.53061">
        <ele>1504</ele>
        <time>2000-01-01T02:38:43.000Z</time>
      </trkpt>
      <trkpt lat="45.78236" lon="6.53054">
        <ele>1492</ele>
        <time>2000-01-01T02:38:53.000Z</time>
      </trkpt>
      <trkpt lat="45.78223" lon="6.5305">
        <ele>1498</ele>
        <time>2000-01-01T02:39:03.000Z</time>
      </trkpt>
      <trkpt lat="45.78206" lon="6.5304">
        <ele>1492</ele>
        <time>2000-01-01T02:39:13.000Z</time>
      </trkpt>
      <trkpt lat="45.7819" lon="6.53033">
        <ele>1481</ele>
        <time>2000-01-01T02:39:23.000Z</time>
      </trkpt>
      <trkpt lat="45.78172" lon="6.5303">
        <ele>1490.8</ele>
        <time>2000-01-01T02:39:33.000Z</time>
      </trkpt>
      <trkpt lat="45.78157" lon="6.53027">
        <ele>1479</ele>
        <time>2000-01-01T02:39:43.000Z</time>
      </trkpt>
      <trkpt lat="45.78143" lon="6.53023">
        <ele>1479.1</ele>
        <time>2000-01-01T02:39:53.000Z</time>
      </trkpt>
      <trkpt lat="45.78126" lon="6.5302">
        <ele>1478</ele>
        <time>2000-01-01T02:40:03.000Z</time>
      </trkpt>
      <trkpt lat="45.78106" lon="6.53017">
        <ele>1478</ele>
        <time>2000-01-01T02:40:13.000Z</time>
      </trkpt>
      <trkpt lat="45.78089" lon="6.53016">
        <ele>1474.7</ele>
        <time>2000-01-01T02:40:23.000Z</time>
      </trkpt>
      <trkpt lat="45.78075" lon="6.53016">
        <ele>1469</ele>
        <time>2000-01-01T02:40:33.000Z</time>
      </trkpt>
      <trkpt lat="45.78062" lon="6.53016">
        <ele>1468.8</ele>
        <time>2000-01-01T02:40:43.000Z</time>
      </trkpt>
      <trkpt lat="45.78048" lon="6.53016">
        <ele>1466</ele>
        <time>2000-01-01T02:40:53.000Z</time>
      </trkpt>
      <trkpt lat="45.78035" lon="6.5301">
        <ele>1467.1</ele>
        <time>2000-01-01T02:41:03.000Z</time>
      </trkpt>
      <trkpt lat="45.78021" lon="6.53006">
        <ele>1466</ele>
        <time>2000-01-01T02:41:13.000Z</time>
      </trkpt>
      <trkpt lat="45.78006" lon="6.53004">
        <ele>1466.8</ele>
        <time>2000-01-01T02:41:23.000Z</time>
      </trkpt>
      <trkpt lat="45.77993" lon="6.53004">
        <ele>1466</ele>
        <time>2000-01-01T02:41:33.000Z</time>
      </trkpt>
      <trkpt lat="45.77975" lon="6.53001">
        <ele>1468.6</ele>
        <time>2000-01-01T02:41:43.000Z</time>
      </trkpt>
      <trkpt lat="45.77962" lon="6.53">
        <ele>1466</ele>
        <time>2000-01-01T02:41:53.000Z</time>
      </trkpt>
      <trkpt lat="45.77947" lon="6.52998">
        <ele>1477.6</ele>
        <time>2000-01-01T02:42:03.000Z</time>
      </trkpt>
      <trkpt lat="45.77936" lon="6.53001">
        <ele>1465</ele>
        <time>2000-01-01T02:42:13.000Z</time>
      </trkpt>
      <trkpt lat="45.77924" lon="6.53004">
        <ele>1470.8</ele>
        <time>2000-01-01T02:42:23.000Z</time>
      </trkpt>
      <trkpt lat="45.77912" lon="6.53006">
        <ele>1465</ele>
        <time>2000-01-01T02:42:33.000Z</time>
      </trkpt>
      <trkpt lat="45.77906" lon="6.53011">
        <ele>1474.8</ele>
        <time>2000-01-01T02:42:43.000Z</time>
      </trkpt>
      <trkpt lat="45.77906" lon="6.53026">
        <ele>1476.8</ele>
        <time>2000-01-01T02:42:53.000Z</time>
      </trkpt>
      <trkpt lat="45.77908" lon="6.53043">
        <ele>1465</ele>
        <time>2000-01-01T02:43:03.000Z</time>
      </trkpt>
      <trkpt lat="45.77911" lon="6.53047">
        <ele>1478.7</ele>
        <time>2000-01-01T02:43:13.000Z</time>
      </trkpt>
      <trkpt lat="45.77918" lon="6.53053">
        <ele>1472.9</ele>
        <time>2000-01-01T02:43:23.000Z</time>
      </trkpt>
      <trkpt lat="45.77927" lon="6.53066">
        <ele>1465</ele>
        <time>2000-01-01T02:43:33.000Z</time>
      </trkpt>
      <trkpt lat="45.77933" lon="6.53076">
        <ele>1474.4</ele>
        <time>2000-01-01T02:43:43.000Z</time>
      </trkpt>
      <trkpt lat="45.7794" lon="6.53094">
        <ele>1468</ele>
        <time>2000-01-01T02:43:53.000Z</time>
      </trkpt>
      <trkpt lat="45.77928" lon="6.53091">
        <ele>1480.3</ele>
        <time>2000-01-01T02:44:03.000Z</time>
      </trkpt>
      <trkpt lat="45.77917" lon="6.53087">
        <ele>1469</ele>
        <time>2000-01-01T02:44:13.000Z</time>
      </trkpt>
      <trkpt lat="45.77908" lon="6.53083">
        <ele>1480.1</ele>
        <time>2000-01-01T02:44:23.000Z</time>
      </trkpt>
      <trkpt lat="45.77901" lon="6.53077">
        <ele>1480.3</ele>
        <time>2000-01-01T02:44:33.000Z</time>
      </trkpt>
      <trkpt lat="45.77896" lon="6.5307">
        <ele>1474</ele>
        <time>2000-01-01T02:44:43.000Z</time>
      </trkpt>
      <trkpt lat="45.77879" lon="6.53073">
        <ele>1481.6</ele>
        <time>2000-01-01T02:44:53.000Z</time>
      </trkpt>
      <trkpt lat="45.77866" lon="6.5307">
        <ele>1474</ele>
        <time>2000-01-01T02:45:03.000Z</time>
      </trkpt>
      <trkpt lat="45.77849" lon="6.5306">
        <ele>1483.7</ele>
        <time>2000-01-01T02:45:13.000Z</time>
      </trkpt>
      <trkpt lat="45.77832" lon="6.53061">
        <ele>1477</ele>
        <time>2000-01-01T02:45:23.000Z</time>
      </trkpt>
      <trkpt lat="45.77815" lon="6.53064">
        <ele>1489.9</ele>
        <time>2000-01-01T02:45:33.000Z</time>
      </trkpt>
      <trkpt lat="45.77799" lon="6.53064">
        <ele>1479</ele>
        <time>2000-01-01T02:45:43.000Z</time>
      </trkpt>
      <trkpt lat="45.77785" lon="6.53064">
        <ele>1491.1</ele>
        <time>2000-01-01T02:45:53.000Z</time>
      </trkpt>
      <trkpt lat="45.77771" lon="6.5306">
        <ele>1479</ele>
        <time>2000-01-01T02:46:03.000Z</time>
      </trkpt>
      <trkpt lat="45.77761" lon="6.53057">
        <ele>1492.3</ele>
        <time>2000-01-01T02:46:13.000Z</time>
      </trkpt>
      <trkpt lat="45.77746" lon="6.53051">
        <ele>1478</ele>
        <time>2000-01-01T02:46:23.000Z</time>
      </trkpt>
      <trkpt lat="45.7773" lon="6.53054">
        <ele>1495.8</ele>
        <time>2000-01-01T02:46:33.000Z</time>
      </trkpt>
      <trkpt lat="45.77715" lon="6.53061">
        <ele>1477</ele>
        <time>2000-01-01T02:46:43.000Z</time>
      </trkpt>
      <trkpt lat="45.77698" lon="6.53077">
        <ele>1477</ele>
        <time>2000-01-01T02:46:53.000Z</time>
      </trkpt>
      <trkpt lat="45.77688" lon="6.53084">
        <ele>1507.4</ele>
        <time>2000-01-01T02:47:03.000Z</time>
      </trkpt>
      <trkpt lat="45.77682" lon="6.53079">
        <ele>1500.4</ele>
        <time>2000-01-01T02:47:13.000Z</time>
      </trkpt>
      <trkpt lat="45.77667" lon="6.53068">
        <ele>1479</ele>
        <time>2000-01-01T02:47:23.000Z</time>
      </trkpt>
      <trkpt lat="45.77652" lon="6.53067">
        <ele>1502.5</ele>
        <time>2000-01-01T02:47:33.000Z</time>
      </trkpt>
      <trkpt lat="45.77635" lon="6.53073">
        <ele>1496</ele>
        <time>2000-01-01T02:47:43.000Z</time>
      </trkpt>
      <trkpt lat="45.77623" lon="6.53084">
        <ele>1511.5</ele>
        <time>2000-01-01T02:47:53.000Z</time>
      </trkpt>
      <trkpt lat="45.77607" lon="6.5309">
        <ele>1492</ele>
        <time>2000-01-01T02:48:03.000Z</time>
      </trkpt>
      <trkpt lat="45.77596" lon="6.53091">
        <ele>1511.5</ele>
        <time>2000-01-01T02:48:13.000Z</time>
      </trkpt>
      <trkpt lat="45.77583" lon="6.53094">
        <ele>1493</ele>
        <time>2000-01-01T02:48:23.000Z</time>
      </trkpt>
      <trkpt lat="45.77571" lon="6.53094">
        <ele>1514.2</ele>
        <time>2000-01-01T02:48:33.000Z</time>
      </trkpt>
      <trkpt lat="45.77558" lon="6.53104">
        <ele>1495</ele>
        <time>2000-01-01T02:48:43.000Z</time>
      </trkpt>
      <trkpt lat="45.77549" lon="6.53111">
        <ele>1517.5</ele>
        <time>2000-01-01T02:48:53.000Z</time>
      </trkpt>
      <trkpt lat="45.77533" lon="6.53109">
        <ele>1502</ele>
        <time>2000-01-01T02:49:03.000Z</time>
      </trkpt>
      <trkpt lat="45.77518" lon="6.53104">
        <ele>1518.2</ele>
        <time>2000-01-01T02:49:13.000Z</time>
      </trkpt>
      <trkpt lat="45.77504" lon="6.53101">
        <ele>1503</ele>
        <time>2000-01-01T02:49:23.000Z</time>
      </trkpt>
      <trkpt lat="45.77498" lon="6.531">
        <ele>1523.1</ele>
        <time>2000-01-01T02:49:33.000Z</time>
      </trkpt>
      <trkpt lat="45.77496" lon="6.53091">
        <ele>1520.8</ele>
        <time>2000-01-01T02:49:43.000Z</time>
      </trkpt>
      <trkpt lat="45.77502" lon="6.53077">
        <ele>1500</ele>
        <time>2000-01-01T02:49:53.000Z</time>
      </trkpt>
      <trkpt lat="45.77502" lon="6.53064">
        <ele>1514.4</ele>
        <time>2000-01-01T02:50:03.000Z</time>
      </trkpt>
      <trkpt lat="45.77495" lon="6.53047">
        <ele>1503</ele>
        <time>2000-01-01T02:50:13.000Z</time>
      </trkpt>
      <trkpt lat="45.7749" lon="6.53027">
        <ele>1522.4</ele>
        <time>2000-01-01T02:50:23.000Z</time>
      </trkpt>
      <trkpt lat="45.77486" lon="6.53014">
        <ele>1504</ele>
        <time>2000-01-01T02:50:33.000Z</time>
      </trkpt>
      <trkpt lat="45.77489" lon="6.52994">
        <ele>1519.4</ele>
        <time>2000-01-01T02:50:43.000Z</time>
      </trkpt>
      <trkpt lat="45.77489" lon="6.52977">
        <ele>1506</ele>
        <time>2000-01-01T02:50:53.000Z</time>
      </trkpt>
      <trkpt lat="45.77482" lon="6.5297">
        <ele>1521.2</ele>
        <time>2000-01-01T02:51:03.000Z</time>
      </trkpt>
      <trkpt lat="45.77476" lon="6.52955">
        <ele>1511</ele>
        <time>2000-01-01T02:51:13.000Z</time>
      </trkpt>
      <trkpt lat="45.77466" lon="6.52945">
        <ele>1521.8</ele>
        <time>2000-01-01T02:51:23.000Z</time>
      </trkpt>
      <trkpt lat="45.77454" lon="6.52938">
        <ele>1517</ele>
        <time>2000-01-01T02:51:33.000Z</time>
      </trkpt>
      <trkpt lat="45.77443" lon="6.5293">
        <ele>1523.2</ele>
        <time>2000-01-01T02:51:43.000Z</time>
      </trkpt>
      <trkpt lat="45.77431" lon="6.52915">
        <ele>1519</ele>
        <time>2000-01-01T02:51:53.000Z</time>
      </trkpt>
      <trkpt lat="45.77422" lon="6.52904">
        <ele>1525.5</ele>
        <time>2000-01-01T02:52:03.000Z</time>
      </trkpt>
      <trkpt lat="45.77413" lon="6.52897">
        <ele>1520</ele>
        <time>2000-01-01T02:52:13.000Z</time>
      </trkpt>
      <trkpt lat="45.77401" lon="6.52894">
        <ele>1527.9</ele>
        <time>2000-01-01T02:52:23.000Z</time>
      </trkpt>
      <trkpt lat="45.77391" lon="6.52888">
        <ele>1517</ele>
        <time>2000-01-01T02:52:33.000Z</time>
      </trkpt>
      <trkpt lat="45.77382" lon="6.52884">
        <ele>1528.8</ele>
        <time>2000-01-01T02:52:43.000Z</time>
      </trkpt>
      <trkpt lat="45.77368" lon="6.52874">
        <ele>1516</ele>
        <time>2000-01-01T02:52:53.000Z</time>
      </trkpt>
      <trkpt lat="45.77358" lon="6.52867">
        <ele>1529.2</ele>
        <time>2000-01-01T02:53:03.000Z</time>
      </trkpt>
      <trkpt lat="45.7735" lon="6.52861">
        <ele>1516</ele>
        <time>2000-01-01T02:53:13.000Z</time>
      </trkpt>
      <trkpt lat="45.77347" lon="6.5286">
        <ele>1529.3</ele>
        <time>2000-01-01T02:53:23.000Z</time>
      </trkpt>
      <trkpt lat="45.77353" lon="6.52852">
        <ele>1529.2</ele>
        <time>2000-01-01T02:53:33.000Z</time>
      </trkpt>
      <trkpt lat="45.77365" lon="6.52847">
        <ele>1516</ele>
        <time>2000-01-01T02:53:43.000Z</time>
      </trkpt>
      <trkpt lat="45.77377" lon="6.5284">
        <ele>1529.2</ele>
        <time>2000-01-01T02:53:53.000Z</time>
      </trkpt>
      <trkpt lat="45.77386" lon="6.52831">
        <ele>1521</ele>
        <time>2000-01-01T02:54:03.000Z</time>
      </trkpt>
      <trkpt lat="45.77398" lon="6.52827">
        <ele>1532.9</ele>
        <time>2000-01-01T02:54:13.000Z</time>
      </trkpt>
      <trkpt lat="45.77412" lon="6.52827">
        <ele>1522</ele>
        <time>2000-01-01T02:54:23.000Z</time>
      </trkpt>
      <trkpt lat="45.77425" lon="6.52832">
        <ele>1532.9</ele>
        <time>2000-01-01T02:54:33.000Z</time>
      </trkpt>
      <trkpt lat="45.77443" lon="6.52841">
        <ele>1523</ele>
        <time>2000-01-01T02:54:43.000Z</time>
      </trkpt>
      <trkpt lat="45.77448" lon="6.52847">
        <ele>1528.2</ele>
        <time>2000-01-01T02:54:53.000Z</time>
      </trkpt>
      <trkpt lat="45.77465" lon="6.52854">
        <ele>1523</ele>
        <time>2000-01-01T02:55:03.000Z</time>
      </trkpt>
      <trkpt lat="45.77481" lon="6.52862">
        <ele>1527.8</ele>
        <time>2000-01-01T02:55:13.000Z</time>
      </trkpt>
      <trkpt lat="45.77502" lon="6.52872">
        <ele>1522</ele>
        <time>2000-01-01T02:55:23.000Z</time>
      </trkpt>
      <trkpt lat="45.77518" lon="6.5288">
        <ele>1522</ele>
        <time>2000-01-01T02:55:33.000Z</time>
      </trkpt>
      <trkpt lat="45.77532" lon="6.52888">
        <ele>1521</ele>
        <time>2000-01-01T02:55:43.000Z</time>
      </trkpt>
      <trkpt lat="45.77542" lon="6.52894">
        <ele>1519.2</ele>
        <time>2000-01-01T02:55:53.000Z</time>
      </trkpt>
      <trkpt lat="45.77551" lon="6.52898">
        <ele>1515</ele>
        <time>2000-01-01T02:56:03.000Z</time>
      </trkpt>
      <trkpt lat="45.77562" lon="6.52905">
        <ele>1515</ele>
        <time>2000-01-01T02:56:13.000Z</time>
      </trkpt>
      <trkpt lat="45.77573" lon="6.5291">
        <ele>1504</ele>
        <time>2000-01-01T02:56:23.000Z</time>
      </trkpt>
      <trkpt lat="45.77582" lon="6.5291">
        <ele>1508.3</ele>
        <time>2000-01-01T02:56:33.000Z</time>
      </trkpt>
      <trkpt lat="45.7759" lon="6.52907">
        <ele>1505.8</ele>
        <time>2000-01-01T02:56:43.000Z</time>
      </trkpt>
      <trkpt lat="45.77602" lon="6.52897">
        <ele>1505</ele>
        <time>2000-01-01T02:56:53.000Z</time>
      </trkpt>
      <trkpt lat="45.77611" lon="6.52884">
        <ele>1508.3</ele>
        <time>2000-01-01T02:57:03.000Z</time>
      </trkpt>
      <trkpt lat="45.77624" lon="6.52872">
        <ele>1504</ele>
        <time>2000-01-01T02:57:13.000Z</time>
      </trkpt>
      <trkpt lat="45.77635" lon="6.52864">
        <ele>1508.7</ele>
        <time>2000-01-01T02:57:23.000Z</time>
      </trkpt>
      <trkpt lat="45.77649" lon="6.52855">
        <ele>1508</ele>
        <time>2000-01-01T02:57:33.000Z</time>
      </trkpt>
      <trkpt lat="45.7766" lon="6.52851">
        <ele>1508.6</ele>
        <time>2000-01-01T02:57:43.000Z</time>
      </trkpt>
      <trkpt lat="45.77676" lon="6.52845">
        <ele>1505</ele>
        <time>2000-01-01T02:57:53.000Z</time>
      </trkpt>
      <trkpt lat="45.77691" lon="6.52834">
        <ele>1501.3</ele>
        <time>2000-01-01T02:58:03.000Z</time>
      </trkpt>
      <trkpt lat="45.77704" lon="6.52825">
        <ele>1505</ele>
        <time>2000-01-01T02:58:13.000Z</time>
      </trkpt>
      <trkpt lat="45.77715" lon="6.52822">
        <ele>1516.4</ele>
        <time>2000-01-01T02:58:23.000Z</time>
      </trkpt>
      <trkpt lat="45.77728" lon="6.52821">
        <ele>1505</ele>
        <time>2000-01-01T02:58:33.000Z</time>
      </trkpt>
      <trkpt lat="45.7774" lon="6.52827">
        <ele>1509.5</ele>
        <time>2000-01-01T02:58:43.000Z</time>
      </trkpt>
      <trkpt lat="45.7775" lon="6.52834">
        <ele>1499</ele>
        <time>2000-01-01T02:58:53.000Z</time>
      </trkpt>
      <trkpt lat="45.77759" lon="6.5284">
        <ele>1499.6</ele>
        <time>2000-01-01T02:59:03.000Z</time>
      </trkpt>
      <trkpt lat="45.77759" lon="6.5284">
        <ele>1499.6</ele>
        <time>2000-01-01T02:59:13.000Z</time>
      </trkpt>
      <trkpt lat="45.77759" lon="6.5284">
        <ele>1499.6</ele>
        <time>2000-01-01T02:59:23.000Z</time>
      </trkpt>
      <trkpt lat="45.77772" lon="6.52848">
        <ele>1499</ele>
        <time>2000-01-01T02:59:33.000Z</time>
      </trkpt>
      <trkpt lat="45.77782" lon="6.52851">
        <ele>1497.8</ele>
        <time>2000-01-01T02:59:43.000Z</time>
      </trkpt>
      <trkpt lat="45.77796" lon="6.52855">
        <ele>1499</ele>
        <time>2000-01-01T02:59:53.000Z</time>
      </trkpt>
      <trkpt lat="45.77809" lon="6.5286">
        <ele>1498.7</ele>
        <time>2000-01-01T03:00:03.000Z</time>
      </trkpt>
      <trkpt lat="45.77822" lon="6.52861">
        <ele>1499</ele>
        <time>2000-01-01T03:00:13.000Z</time>
      </trkpt>
      <trkpt lat="45.77835" lon="6.52864">
        <ele>1505.3</ele>
        <time>2000-01-01T03:00:23.000Z</time>
      </trkpt>
      <trkpt lat="45.77851" lon="6.52864">
        <ele>1504</ele>
        <time>2000-01-01T03:00:33.000Z</time>
      </trkpt>
      <trkpt lat="45.7787" lon="6.52864">
        <ele>1504</ele>
        <time>2000-01-01T03:00:43.000Z</time>
      </trkpt>
      <trkpt lat="45.7788" lon="6.52864">
        <ele>1507.2</ele>
        <time>2000-01-01T03:00:53.000Z</time>
      </trkpt>
      <trkpt lat="45.77893" lon="6.52861">
        <ele>1502</ele>
        <time>2000-01-01T03:01:03.000Z</time>
      </trkpt>
      <trkpt lat="45.77908" lon="6.52857">
        <ele>1512.6</ele>
        <time>2000-01-01T03:01:13.000Z</time>
      </trkpt>
      <trkpt lat="45.77925" lon="6.52857">
        <ele>1505</ele>
        <time>2000-01-01T03:01:23.000Z</time>
      </trkpt>
      <trkpt lat="45.77943" lon="6.52857">
        <ele>1508</ele>
        <time>2000-01-01T03:01:33.000Z</time>
      </trkpt>
      <trkpt lat="45.77964" lon="6.52858">
        <ele>1513</ele>
        <time>2000-01-01T03:01:43.000Z</time>
      </trkpt>
      <trkpt lat="45.77985" lon="6.52858">
        <ele>1513</ele>
        <time>2000-01-01T03:01:53.000Z</time>
      </trkpt>
      <trkpt lat="45.78008" lon="6.52858">
        <ele>1517</ele>
        <time>2000-01-01T03:02:03.000Z</time>
      </trkpt>
      <trkpt lat="45.78024" lon="6.52857">
        <ele>1524.1</ele>
        <time>2000-01-01T03:02:13.000Z</time>
      </trkpt>
      <trkpt lat="45.7804" lon="6.52858">
        <ele>1518</ele>
        <time>2000-01-01T03:02:23.000Z</time>
      </trkpt>
      <trkpt lat="45.78049" lon="6.52854">
        <ele>1525</ele>
        <time>2000-01-01T03:02:33.000Z</time>
      </trkpt>
      <trkpt lat="45.78062" lon="6.52853">
        <ele>1519</ele>
        <time>2000-01-01T03:02:43.000Z</time>
      </trkpt>
      <trkpt lat="45.78074" lon="6.5285">
        <ele>1529.2</ele>
        <time>2000-01-01T03:02:53.000Z</time>
      </trkpt>
      <trkpt lat="45.78084" lon="6.5285">
        <ele>1525</ele>
        <time>2000-01-01T03:03:03.000Z</time>
      </trkpt>
      <trkpt lat="45.78097" lon="6.52847">
        <ele>1533.6</ele>
        <time>2000-01-01T03:03:13.000Z</time>
      </trkpt>
      <trkpt lat="45.78109" lon="6.52845">
        <ele>1526</ele>
        <time>2000-01-01T03:03:23.000Z</time>
      </trkpt>
      <trkpt lat="45.78124" lon="6.52842">
        <ele>1533.3</ele>
        <time>2000-01-01T03:03:33.000Z</time>
      </trkpt>
      <trkpt lat="45.78137" lon="6.52837">
        <ele>1528</ele>
        <time>2000-01-01T03:03:43.000Z</time>
      </trkpt>
      <trkpt lat="45.7815" lon="6.52828">
        <ele>1544.6</ele>
        <time>2000-01-01T03:03:53.000Z</time>
      </trkpt>
      <trkpt lat="45.78159" lon="6.52815">
        <ele>1536</ele>
        <time>2000-01-01T03:04:03.000Z</time>
      </trkpt>
      <trkpt lat="45.78171" lon="6.52795">
        <ele>1549.3</ele>
        <time>2000-01-01T03:04:13.000Z</time>
      </trkpt>
      <trkpt lat="45.78175" lon="6.52784">
        <ele>1543</ele>
        <time>2000-01-01T03:04:23.000Z</time>
      </trkpt>
      <trkpt lat="45.78178" lon="6.52772">
        <ele>1550.8</ele>
        <time>2000-01-01T03:04:33.000Z</time>
      </trkpt>
      <trkpt lat="45.78184" lon="6.52762">
        <ele>1551.2</ele>
        <time>2000-01-01T03:04:43.000Z</time>
      </trkpt>
      <trkpt lat="45.78192" lon="6.52757">
        <ele>1548</ele>
        <time>2000-01-01T03:04:53.000Z</time>
      </trkpt>
      <trkpt lat="45.78203" lon="6.52755">
        <ele>1552.2</ele>
        <time>2000-01-01T03:05:03.000Z</time>
      </trkpt>
      <trkpt lat="45.78212" lon="6.52749">
        <ele>1551</ele>
        <time>2000-01-01T03:05:13.000Z</time>
      </trkpt>
      <trkpt lat="45.78225" lon="6.52747">
        <ele>1560.5</ele>
        <time>2000-01-01T03:05:23.000Z</time>
      </trkpt>
      <trkpt lat="45.78237" lon="6.52739">
        <ele>1555</ele>
        <time>2000-01-01T03:05:33.000Z</time>
      </trkpt>
      <trkpt lat="45.78242" lon="6.52734">
        <ele>1561.2</ele>
        <time>2000-01-01T03:05:43.000Z</time>
      </trkpt>
      <trkpt lat="45.78231" lon="6.52724">
        <ele>1555</ele>
        <time>2000-01-01T03:05:53.000Z</time>
      </trkpt>
      <trkpt lat="45.78223" lon="6.52721">
        <ele>1561.8</ele>
        <time>2000-01-01T03:06:03.000Z</time>
      </trkpt>
      <trkpt lat="45.78217" lon="6.52715">
        <ele>1561.9</ele>
        <time>2000-01-01T03:06:13.000Z</time>
      </trkpt>
      <trkpt lat="45.7821" lon="6.52694">
        <ele>1557</ele>
        <time>2000-01-01T03:06:23.000Z</time>
      </trkpt>
      <trkpt lat="45.78205" lon="6.52672">
        <ele>1564.1</ele>
        <time>2000-01-01T03:06:33.000Z</time>
      </trkpt>
      <trkpt lat="45.78199" lon="6.52652">
        <ele>1557</ele>
        <time>2000-01-01T03:06:43.000Z</time>
      </trkpt>
      <trkpt lat="45.78195" lon="6.52635">
        <ele>1569.7</ele>
        <time>2000-01-01T03:06:53.000Z</time>
      </trkpt>
      <trkpt lat="45.78193" lon="6.52628">
        <ele>1569.9</ele>
        <time>2000-01-01T03:07:03.000Z</time>
      </trkpt>
      <trkpt lat="45.782" lon="6.52615">
        <ele>1556</ele>
        <time>2000-01-01T03:07:13.000Z</time>
      </trkpt>
      <trkpt lat="45.78209" lon="6.52608">
        <ele>1570.9</ele>
        <time>2000-01-01T03:07:23.000Z</time>
      </trkpt>
      <trkpt lat="45.78225" lon="6.52596">
        <ele>1556</ele>
        <time>2000-01-01T03:07:33.000Z</time>
      </trkpt>
      <trkpt lat="45.78235" lon="6.52589">
        <ele>1572</ele>
        <time>2000-01-01T03:07:43.000Z</time>
      </trkpt>
      <trkpt lat="45.78251" lon="6.52582">
        <ele>1557</ele>
        <time>2000-01-01T03:07:53.000Z</time>
      </trkpt>
      <trkpt lat="45.78263" lon="6.52576">
        <ele>1576.3</ele>
        <time>2000-01-01T03:08:03.000Z</time>
      </trkpt>
      <trkpt lat="45.78269" lon="6.52568">
        <ele>1557</ele>
        <time>2000-01-01T03:08:13.000Z</time>
      </trkpt>
      <trkpt lat="45.78277" lon="6.52558">
        <ele>1578.7</ele>
        <time>2000-01-01T03:08:23.000Z</time>
      </trkpt>
      <trkpt lat="45.78281" lon="6.52543">
        <ele>1560</ele>
        <time>2000-01-01T03:08:33.000Z</time>
      </trkpt>
      <trkpt lat="45.78288" lon="6.52522">
        <ele>1578.9</ele>
        <time>2000-01-01T03:08:43.000Z</time>
      </trkpt>
      <trkpt lat="45.78294" lon="6.52502">
        <ele>1560</ele>
        <time>2000-01-01T03:08:53.000Z</time>
      </trkpt>
      <trkpt lat="45.78303" lon="6.52486">
        <ele>1575.2</ele>
        <time>2000-01-01T03:09:03.000Z</time>
      </trkpt>
      <trkpt lat="45.78313" lon="6.52476">
        <ele>1560</ele>
        <time>2000-01-01T03:09:13.000Z</time>
      </trkpt>
      <trkpt lat="45.78324" lon="6.52468">
        <ele>1574.9</ele>
        <time>2000-01-01T03:09:23.000Z</time>
      </trkpt>
      <trkpt lat="45.78334" lon="6.52458">
        <ele>1560</ele>
        <time>2000-01-01T03:09:33.000Z</time>
      </trkpt>
      <trkpt lat="45.78347" lon="6.52446">
        <ele>1579</ele>
        <time>2000-01-01T03:09:43.000Z</time>
      </trkpt>
      <trkpt lat="45.78358" lon="6.52432">
        <ele>1560</ele>
        <time>2000-01-01T03:09:53.000Z</time>
      </trkpt>
      <trkpt lat="45.7837" lon="6.52415">
        <ele>1573.8</ele>
        <time>2000-01-01T03:10:03.000Z</time>
      </trkpt>
      <trkpt lat="45.78377" lon="6.52398">
        <ele>1561</ele>
        <time>2000-01-01T03:10:13.000Z</time>
      </trkpt>
      <trkpt lat="45.78387" lon="6.52385">
        <ele>1574.5</ele>
        <time>2000-01-01T03:10:23.000Z</time>
      </trkpt>
      <trkpt lat="45.784" lon="6.52366">
        <ele>1562</ele>
        <time>2000-01-01T03:10:33.000Z</time>
      </trkpt>
      <trkpt lat="45.7841" lon="6.52356">
        <ele>1573.7</ele>
        <time>2000-01-01T03:10:43.000Z</time>
      </trkpt>
      <trkpt lat="45.78423" lon="6.52345">
        <ele>1563</ele>
        <time>2000-01-01T03:10:53.000Z</time>
      </trkpt>
      <trkpt lat="45.78434" lon="6.5233">
        <ele>1574.5</ele>
        <time>2000-01-01T03:11:03.000Z</time>
      </trkpt>
      <trkpt lat="45.78444" lon="6.52317">
        <ele>1564</ele>
        <time>2000-01-01T03:11:13.000Z</time>
      </trkpt>
      <trkpt lat="45.78447" lon="6.52297">
        <ele>1574.9</ele>
        <time>2000-01-01T03:11:23.000Z</time>
      </trkpt>
      <trkpt lat="45.78456" lon="6.52277">
        <ele>1563</ele>
        <time>2000-01-01T03:11:33.000Z</time>
      </trkpt>
      <trkpt lat="45.78465" lon="6.52253">
        <ele>1563</ele>
        <time>2000-01-01T03:11:43.000Z</time>
      </trkpt>
      <trkpt lat="45.7848" lon="6.52214">
        <ele>1563</ele>
        <time>2000-01-01T03:11:53.000Z</time>
      </trkpt>
      <trkpt lat="45.78482" lon="6.52203">
        <ele>1570.3</ele>
        <time>2000-01-01T03:12:03.000Z</time>
      </trkpt>
      <trkpt lat="45.7849" lon="6.52184">
        <ele>1562</ele>
        <time>2000-01-01T03:12:13.000Z</time>
      </trkpt>
      <trkpt lat="45.785" lon="6.52164">
        <ele>1570</ele>
        <time>2000-01-01T03:12:23.000Z</time>
      </trkpt>
      <trkpt lat="45.78507" lon="6.52144">
        <ele>1561</ele>
        <time>2000-01-01T03:12:33.000Z</time>
      </trkpt>
      <trkpt lat="45.78519" lon="6.52123">
        <ele>1560</ele>
        <time>2000-01-01T03:12:43.000Z</time>
      </trkpt>
      <trkpt lat="45.78524" lon="6.52107">
        <ele>1572</ele>
        <time>2000-01-01T03:12:53.000Z</time>
      </trkpt>
      <trkpt lat="45.78534" lon="6.52084">
        <ele>1560</ele>
        <time>2000-01-01T03:13:03.000Z</time>
      </trkpt>
      <trkpt lat="45.78539" lon="6.52064">
        <ele>1566.9</ele>
        <time>2000-01-01T03:13:13.000Z</time>
      </trkpt>
      <trkpt lat="45.78545" lon="6.52049">
        <ele>1558</ele>
        <time>2000-01-01T03:13:23.000Z</time>
      </trkpt>
      <trkpt lat="45.78552" lon="6.52039">
        <ele>1566.7</ele>
        <time>2000-01-01T03:13:33.000Z</time>
      </trkpt>
      <trkpt lat="45.7856" lon="6.52028">
        <ele>1556</ele>
        <time>2000-01-01T03:13:43.000Z</time>
      </trkpt>
      <trkpt lat="45.78572" lon="6.52019">
        <ele>1566.8</ele>
        <time>2000-01-01T03:13:53.000Z</time>
      </trkpt>
      <trkpt lat="45.78579" lon="6.5201">
        <ele>1556</ele>
        <time>2000-01-01T03:14:03.000Z</time>
      </trkpt>
      <trkpt lat="45.78582" lon="6.51997">
        <ele>1565.2</ele>
        <time>2000-01-01T03:14:13.000Z</time>
      </trkpt>
      <trkpt lat="45.7859" lon="6.51983">
        <ele>1557</ele>
        <time>2000-01-01T03:14:23.000Z</time>
      </trkpt>
      <trkpt lat="45.78596" lon="6.51971">
        <ele>1564.1</ele>
        <time>2000-01-01T03:14:33.000Z</time>
      </trkpt>
      <trkpt lat="45.78602" lon="6.51961">
        <ele>1555</ele>
        <time>2000-01-01T03:14:43.000Z</time>
      </trkpt>
      <trkpt lat="45.78614" lon="6.51951">
        <ele>1562.6</ele>
        <time>2000-01-01T03:14:53.000Z</time>
      </trkpt>
      <trkpt lat="45.78626" lon="6.51943">
        <ele>1554</ele>
        <time>2000-01-01T03:15:03.000Z</time>
      </trkpt>
      <trkpt lat="45.78637" lon="6.51936">
        <ele>1562.4</ele>
        <time>2000-01-01T03:15:13.000Z</time>
      </trkpt>
      <trkpt lat="45.7865" lon="6.51933">
        <ele>1551</ele>
        <time>2000-01-01T03:15:23.000Z</time>
      </trkpt>
      <trkpt lat="45.78663" lon="6.51933">
        <ele>1561.8</ele>
        <time>2000-01-01T03:15:33.000Z</time>
      </trkpt>
      <trkpt lat="45.78669" lon="6.51936">
        <ele>1547</ele>
        <time>2000-01-01T03:15:43.000Z</time>
      </trkpt>
      <trkpt lat="45.78676" lon="6.51935">
        <ele>1564.9</ele>
        <time>2000-01-01T03:15:53.000Z</time>
      </trkpt>
      <trkpt lat="45.78681" lon="6.51935">
        <ele>1565.3</ele>
        <time>2000-01-01T03:16:03.000Z</time>
      </trkpt>
      <trkpt lat="45.7869" lon="6.51935">
        <ele>1547</ele>
        <time>2000-01-01T03:16:13.000Z</time>
      </trkpt>
      <trkpt lat="45.78695" lon="6.51935">
        <ele>1566.4</ele>
        <time>2000-01-01T03:16:23.000Z</time>
      </trkpt>
      <trkpt lat="45.78701" lon="6.51937">
        <ele>1566.9</ele>
        <time>2000-01-01T03:16:33.000Z</time>
      </trkpt>
      <trkpt lat="45.78703" lon="6.51926">
        <ele>1545</ele>
        <time>2000-01-01T03:16:43.000Z</time>
      </trkpt>
      <trkpt lat="45.78707" lon="6.51924">
        <ele>1566.2</ele>
        <time>2000-01-01T03:16:53.000Z</time>
      </trkpt>
      <trkpt lat="45.78703" lon="6.51914">
        <ele>1556.8</ele>
        <time>2000-01-01T03:17:03.000Z</time>
      </trkpt>
      <trkpt lat="45.78708" lon="6.51911">
        <ele>1556.8</ele>
        <time>2000-01-01T03:17:13.000Z</time>
      </trkpt>
      <trkpt lat="45.78709" lon="6.519">
        <ele>1544</ele>
        <time>2000-01-01T03:17:23.000Z</time>
      </trkpt>
      <trkpt lat="45.78712" lon="6.51885">
        <ele>1555.4</ele>
        <time>2000-01-01T03:17:33.000Z</time>
      </trkpt>
      <trkpt lat="45.78715" lon="6.51871">
        <ele>1543</ele>
        <time>2000-01-01T03:17:43.000Z</time>
      </trkpt>
      <trkpt lat="45.78717" lon="6.51854">
        <ele>1553.2</ele>
        <time>2000-01-01T03:17:53.000Z</time>
      </trkpt>
      <trkpt lat="45.78717" lon="6.51839">
        <ele>1540</ele>
        <time>2000-01-01T03:18:03.000Z</time>
      </trkpt>
      <trkpt lat="45.78719" lon="6.51825">
        <ele>1545.3</ele>
        <time>2000-01-01T03:18:13.000Z</time>
      </trkpt>
      <trkpt lat="45.78722" lon="6.51814">
        <ele>1544.9</ele>
        <time>2000-01-01T03:18:23.000Z</time>
      </trkpt>
      <trkpt lat="45.78726" lon="6.51804">
        <ele>1537</ele>
        <time>2000-01-01T03:18:33.000Z</time>
      </trkpt>
      <trkpt lat="45.78727" lon="6.51799">
        <ele>1544.2</ele>
        <time>2000-01-01T03:18:43.000Z</time>
      </trkpt>
      <trkpt lat="45.78731" lon="6.51794">
        <ele>1544</ele>
        <time>2000-01-01T03:18:53.000Z</time>
      </trkpt>
      <trkpt lat="45.78731" lon="6.51786">
        <ele>1543.5</ele>
        <time>2000-01-01T03:19:03.000Z</time>
      </trkpt>
      <trkpt lat="45.78731" lon="6.5178">
        <ele>1543.1</ele>
        <time>2000-01-01T03:19:13.000Z</time>
      </trkpt>
      <trkpt lat="45.78727" lon="6.5177">
        <ele>1533</ele>
        <time>2000-01-01T03:19:23.000Z</time>
      </trkpt>
      <trkpt lat="45.78724" lon="6.51765">
        <ele>1542.3</ele>
        <time>2000-01-01T03:19:33.000Z</time>
      </trkpt>
      <trkpt lat="45.7872" lon="6.51758">
        <ele>1541.9</ele>
        <time>2000-01-01T03:19:43.000Z</time>
      </trkpt>
      <trkpt lat="45.78712" lon="6.51746">
        <ele>1531</ele>
        <time>2000-01-01T03:19:53.000Z</time>
      </trkpt>
      <trkpt lat="45.78706" lon="6.51741">
        <ele>1535.4</ele>
        <time>2000-01-01T03:20:03.000Z</time>
      </trkpt>
      <trkpt lat="45.78704" lon="6.51731">
        <ele>1535.1</ele>
        <time>2000-01-01T03:20:13.000Z</time>
      </trkpt>
      <trkpt lat="45.787" lon="6.5172">
        <ele>1521</ele>
        <time>2000-01-01T03:20:23.000Z</time>
      </trkpt>
      <trkpt lat="45.78697" lon="6.51702">
        <ele>1533.6</ele>
        <time>2000-01-01T03:20:33.000Z</time>
      </trkpt>
      <trkpt lat="45.78697" lon="6.51681">
        <ele>1513</ele>
        <time>2000-01-01T03:20:43.000Z</time>
      </trkpt>
      <trkpt lat="45.78697" lon="6.51656">
        <ele>1527.3</ele>
        <time>2000-01-01T03:20:53.000Z</time>
      </trkpt>
      <trkpt lat="45.78696" lon="6.5163">
        <ele>1510</ele>
        <time>2000-01-01T03:21:03.000Z</time>
      </trkpt>
      <trkpt lat="45.78695" lon="6.51607">
        <ele>1524.8</ele>
        <time>2000-01-01T03:21:13.000Z</time>
      </trkpt>
      <trkpt lat="45.78696" lon="6.51593">
        <ele>1510</ele>
        <time>2000-01-01T03:21:23.000Z</time>
      </trkpt>
      <trkpt lat="45.78694" lon="6.51572">
        <ele>1517.1</ele>
        <time>2000-01-01T03:21:33.000Z</time>
      </trkpt>
      <trkpt lat="45.78694" lon="6.51551">
        <ele>1510</ele>
        <time>2000-01-01T03:21:43.000Z</time>
      </trkpt>
      <trkpt lat="45.78694" lon="6.5153">
        <ele>1514.9</ele>
        <time>2000-01-01T03:21:53.000Z</time>
      </trkpt>
      <trkpt lat="45.78695" lon="6.51516">
        <ele>1498</ele>
        <time>2000-01-01T03:22:03.000Z</time>
      </trkpt>
      <trkpt lat="45.78695" lon="6.51498">
        <ele>1506.2</ele>
        <time>2000-01-01T03:22:13.000Z</time>
      </trkpt>
      <trkpt lat="45.7869" lon="6.51497">
        <ele>1506.7</ele>
        <time>2000-01-01T03:22:23.000Z</time>
      </trkpt>
      <trkpt lat="45.78682" lon="6.51489">
        <ele>1489</ele>
        <time>2000-01-01T03:22:33.000Z</time>
      </trkpt>
      <trkpt lat="45.78677" lon="6.51481">
        <ele>1506.5</ele>
        <time>2000-01-01T03:22:43.000Z</time>
      </trkpt>
      <trkpt lat="45.7867" lon="6.51469">
        <ele>1489</ele>
        <time>2000-01-01T03:22:53.000Z</time>
      </trkpt>
      <trkpt lat="45.78667" lon="6.51459">
        <ele>1503.7</ele>
        <time>2000-01-01T03:23:03.000Z</time>
      </trkpt>
      <trkpt lat="45.78662" lon="6.51445">
        <ele>1496.6</ele>
        <time>2000-01-01T03:23:13.000Z</time>
      </trkpt>
      <trkpt lat="45.78659" lon="6.5144">
        <ele>1488</ele>
        <time>2000-01-01T03:23:23.000Z</time>
      </trkpt>
      <trkpt lat="45.78652" lon="6.51431">
        <ele>1495.8</ele>
        <time>2000-01-01T03:23:33.000Z</time>
      </trkpt>
      <trkpt lat="45.78649" lon="6.51421">
        <ele>1495.5</ele>
        <time>2000-01-01T03:23:43.000Z</time>
      </trkpt>
      <trkpt lat="45.78645" lon="6.51416">
        <ele>1488</ele>
        <time>2000-01-01T03:23:53.000Z</time>
      </trkpt>
      <trkpt lat="45.78641" lon="6.51407">
        <ele>1488.2</ele>
        <time>2000-01-01T03:24:03.000Z</time>
      </trkpt>
      <trkpt lat="45.78634" lon="6.51395">
        <ele>1488</ele>
        <time>2000-01-01T03:24:13.000Z</time>
      </trkpt>
      <trkpt lat="45.78629" lon="6.51388">
        <ele>1484.9</ele>
        <time>2000-01-01T03:24:23.000Z</time>
      </trkpt>
      <trkpt lat="45.78625" lon="6.51382">
        <ele>1484.1</ele>
        <time>2000-01-01T03:24:33.000Z</time>
      </trkpt>
      <trkpt lat="45.7862" lon="6.51371">
        <ele>1486</ele>
        <time>2000-01-01T03:24:43.000Z</time>
      </trkpt>
      <trkpt lat="45.78616" lon="6.51363">
        <ele>1482.5</ele>
        <time>2000-01-01T03:24:53.000Z</time>
      </trkpt>
      <trkpt lat="45.78614" lon="6.51352">
        <ele>1481.9</ele>
        <time>2000-01-01T03:25:03.000Z</time>
      </trkpt>
      <trkpt lat="45.78611" lon="6.51344">
        <ele>1484</ele>
        <time>2000-01-01T03:25:13.000Z</time>
      </trkpt>
      <trkpt lat="45.78605" lon="6.51335">
        <ele>1480.5</ele>
        <time>2000-01-01T03:25:23.000Z</time>
      </trkpt>
      <trkpt lat="45.78597" lon="6.51324">
        <ele>1480</ele>
        <time>2000-01-01T03:25:33.000Z</time>
      </trkpt>
      <trkpt lat="45.78592" lon="6.51317">
        <ele>1473.5</ele>
        <time>2000-01-01T03:25:43.000Z</time>
      </trkpt>
      <trkpt lat="45.78592" lon="6.51317">
        <ele>1473.5</ele>
        <time>2000-01-01T03:25:53.000Z</time>
      </trkpt>
      <trkpt lat="45.78592" lon="6.51317">
        <ele>1473.5</ele>
        <time>2000-01-01T03:26:03.000Z</time>
      </trkpt>
      <trkpt lat="45.78587" lon="6.51312">
        <ele>1473</ele>
        <time>2000-01-01T03:26:13.000Z</time>
      </trkpt>
      <trkpt lat="45.78582" lon="6.51297">
        <ele>1468</ele>
        <time>2000-01-01T03:26:23.000Z</time>
      </trkpt>
      <trkpt lat="45.78578" lon="6.51286">
        <ele>1463.6</ele>
        <time>2000-01-01T03:26:33.000Z</time>
      </trkpt>
      <trkpt lat="45.78573" lon="6.51276">
        <ele>1462.8</ele>
        <time>2000-01-01T03:26:43.000Z</time>
      </trkpt>
      <trkpt lat="45.78571" lon="6.51267">
        <ele>1459</ele>
        <time>2000-01-01T03:26:53.000Z</time>
      </trkpt>
      <trkpt lat="45.78567" lon="6.51261">
        <ele>1462.4</ele>
        <time>2000-01-01T03:27:03.000Z</time>
      </trkpt>
      <trkpt lat="45.78567" lon="6.51249">
        <ele>1457.3</ele>
        <time>2000-01-01T03:27:13.000Z</time>
      </trkpt>
      <trkpt lat="45.78565" lon="6.51243">
        <ele>1457</ele>
        <time>2000-01-01T03:27:23.000Z</time>
      </trkpt>
      <trkpt lat="45.78565" lon="6.51232">
        <ele>1454.4</ele>
        <time>2000-01-01T03:27:33.000Z</time>
      </trkpt>
      <trkpt lat="45.78563" lon="6.51218">
        <ele>1451.8</ele>
        <time>2000-01-01T03:27:43.000Z</time>
      </trkpt>
      <trkpt lat="45.78567" lon="6.51205">
        <ele>1441</ele>
        <time>2000-01-01T03:27:53.000Z</time>
      </trkpt>
      <trkpt lat="45.78569" lon="6.51194">
        <ele>1448.9</ele>
        <time>2000-01-01T03:28:03.000Z</time>
      </trkpt>
      <trkpt lat="45.78571" lon="6.51184">
        <ele>1447.8</ele>
        <time>2000-01-01T03:28:13.000Z</time>
      </trkpt>
      <trkpt lat="45.78572" lon="6.51167">
        <ele>1440</ele>
        <time>2000-01-01T03:28:23.000Z</time>
      </trkpt>
      <trkpt lat="45.78572" lon="6.51153">
        <ele>1439.1</ele>
        <time>2000-01-01T03:28:33.000Z</time>
      </trkpt>
      <trkpt lat="45.78575" lon="6.5114">
        <ele>1435</ele>
        <time>2000-01-01T03:28:43.000Z</time>
      </trkpt>
      <trkpt lat="45.78577" lon="6.51119">
        <ele>1433.4</ele>
        <time>2000-01-01T03:28:53.000Z</time>
      </trkpt>
      <trkpt lat="45.78579" lon="6.51106">
        <ele>1428</ele>
        <time>2000-01-01T03:29:03.000Z</time>
      </trkpt>
      <trkpt lat="45.78581" lon="6.51089">
        <ele>1427.8</ele>
        <time>2000-01-01T03:29:13.000Z</time>
      </trkpt>
      <trkpt lat="45.78581" lon="6.51077">
        <ele>1418</ele>
        <time>2000-01-01T03:29:23.000Z</time>
      </trkpt>
      <trkpt lat="45.78576" lon="6.51071">
        <ele>1421.7</ele>
        <time>2000-01-01T03:29:33.000Z</time>
      </trkpt>
      <trkpt lat="45.78573" lon="6.5106">
        <ele>1419.4</ele>
        <time>2000-01-01T03:29:43.000Z</time>
      </trkpt>
      <trkpt lat="45.78572" lon="6.5105">
        <ele>1408</ele>
        <time>2000-01-01T03:29:53.000Z</time>
      </trkpt>
      <trkpt lat="45.78569" lon="6.5104">
        <ele>1416.1</ele>
        <time>2000-01-01T03:30:03.000Z</time>
      </trkpt>
      <trkpt lat="45.78565" lon="6.51035">
        <ele>1415.4</ele>
        <time>2000-01-01T03:30:13.000Z</time>
      </trkpt>
      <trkpt lat="45.78565" lon="6.51027">
        <ele>1407</ele>
        <time>2000-01-01T03:30:23.000Z</time>
      </trkpt>
      <trkpt lat="45.78565" lon="6.51019">
        <ele>1413</ele>
        <time>2000-01-01T03:30:33.000Z</time>
      </trkpt>
      <trkpt lat="45.78566" lon="6.51008">
        <ele>1411.5</ele>
        <time>2000-01-01T03:30:43.000Z</time>
      </trkpt>
      <trkpt lat="45.78564" lon="6.50998">
        <ele>1401</ele>
        <time>2000-01-01T03:30:53.000Z</time>
      </trkpt>
      <trkpt lat="45.78563" lon="6.5099">
        <ele>1401.9</ele>
        <time>2000-01-01T03:31:03.000Z</time>
      </trkpt>
      <trkpt lat="45.78565" lon="6.50976">
        <ele>1400.5</ele>
        <time>2000-01-01T03:31:13.000Z</time>
      </trkpt>
      <trkpt lat="45.78568" lon="6.50962">
        <ele>1396</ele>
        <time>2000-01-01T03:31:23.000Z</time>
      </trkpt>
      <trkpt lat="45.78573" lon="6.5095">
        <ele>1396.4</ele>
        <time>2000-01-01T03:31:33.000Z</time>
      </trkpt>
      <trkpt lat="45.78583" lon="6.50934">
        <ele>1381</ele>
        <time>2000-01-01T03:31:43.000Z</time>
      </trkpt>
      <trkpt lat="45.78591" lon="6.50926">
        <ele>1388</ele>
        <time>2000-01-01T03:31:53.000Z</time>
      </trkpt>
      <trkpt lat="45.78601" lon="6.50918">
        <ele>1374</ele>
        <time>2000-01-01T03:32:03.000Z</time>
      </trkpt>
      <trkpt lat="45.78609" lon="6.5091">
        <ele>1378.9</ele>
        <time>2000-01-01T03:32:13.000Z</time>
      </trkpt>
      <trkpt lat="45.78616" lon="6.509">
        <ele>1368</ele>
        <time>2000-01-01T03:32:23.000Z</time>
      </trkpt>
      <trkpt lat="45.78625" lon="6.50887">
        <ele>1376</ele>
        <time>2000-01-01T03:32:33.000Z</time>
      </trkpt>
      <trkpt lat="45.78633" lon="6.50875">
        <ele>1363</ele>
        <time>2000-01-01T03:32:43.000Z</time>
      </trkpt>
      <trkpt lat="45.78642" lon="6.50866">
        <ele>1373.9</ele>
        <time>2000-01-01T03:32:53.000Z</time>
      </trkpt>
      <trkpt lat="45.78651" lon="6.50853">
        <ele>1363</ele>
        <time>2000-01-01T03:33:03.000Z</time>
      </trkpt>
      <trkpt lat="45.78654" lon="6.50836">
        <ele>1370.6</ele>
        <time>2000-01-01T03:33:13.000Z</time>
      </trkpt>
      <trkpt lat="45.78657" lon="6.50821">
        <ele>1358</ele>
        <time>2000-01-01T03:33:23.000Z</time>
      </trkpt>
      <trkpt lat="45.78658" lon="6.508">
        <ele>1362</ele>
        <time>2000-01-01T03:33:33.000Z</time>
      </trkpt>
      <trkpt lat="45.78657" lon="6.50778">
        <ele>1349</ele>
        <time>2000-01-01T03:33:43.000Z</time>
      </trkpt>
      <trkpt lat="45.78655" lon="6.50756">
        <ele>1357.2</ele>
        <time>2000-01-01T03:33:53.000Z</time>
      </trkpt>
      <trkpt lat="45.78649" lon="6.5074">
        <ele>1348</ele>
        <time>2000-01-01T03:34:03.000Z</time>
      </trkpt>
      <trkpt lat="45.78645" lon="6.50725">
        <ele>1348</ele>
        <time>2000-01-01T03:34:13.000Z</time>
      </trkpt>
      <trkpt lat="45.78638" lon="6.50712">
        <ele>1344</ele>
        <time>2000-01-01T03:34:23.000Z</time>
      </trkpt>
      <trkpt lat="45.78635" lon="6.50694">
        <ele>1344.6</ele>
        <time>2000-01-01T03:34:33.000Z</time>
      </trkpt>
      <trkpt lat="45.7863" lon="6.50678">
        <ele>1335</ele>
        <time>2000-01-01T03:34:43.000Z</time>
      </trkpt>
      <trkpt lat="45.78625" lon="6.50661">
        <ele>1333.2</ele>
        <time>2000-01-01T03:34:53.000Z</time>
      </trkpt>
      <trkpt lat="45.78621" lon="6.50644">
        <ele>1331</ele>
        <time>2000-01-01T03:35:03.000Z</time>
      </trkpt>
      <trkpt lat="45.78615" lon="6.50625">
        <ele>1330.3</ele>
        <time>2000-01-01T03:35:13.000Z</time>
      </trkpt>
      <trkpt lat="45.78611" lon="6.50611">
        <ele>1327</ele>
        <time>2000-01-01T03:35:23.000Z</time>
      </trkpt>
      <trkpt lat="45.78606" lon="6.506">
        <ele>1327.6</ele>
        <time>2000-01-01T03:35:33.000Z</time>
      </trkpt>
      <trkpt lat="45.78603" lon="6.50588">
        <ele>1326.4</ele>
        <time>2000-01-01T03:35:43.000Z</time>
      </trkpt>
      <trkpt lat="45.786" lon="6.50581">
        <ele>1324</ele>
        <time>2000-01-01T03:35:53.000Z</time>
      </trkpt>
      <trkpt lat="45.78606" lon="6.50572">
        <ele>1318.1</ele>
        <time>2000-01-01T03:36:03.000Z</time>
      </trkpt>
      <trkpt lat="45.78613" lon="6.50563">
        <ele>1317.2</ele>
        <time>2000-01-01T03:36:13.000Z</time>
      </trkpt>
      <trkpt lat="45.78618" lon="6.50558">
        <ele>1322</ele>
        <time>2000-01-01T03:36:23.000Z</time>
      </trkpt>
      <trkpt lat="45.78626" lon="6.5055">
        <ele>1316</ele>
        <time>2000-01-01T03:36:33.000Z</time>
      </trkpt>
      <trkpt lat="45.78623" lon="6.50544">
        <ele>1315.5</ele>
        <time>2000-01-01T03:36:43.000Z</time>
      </trkpt>
      <trkpt lat="45.78618" lon="6.50532">
        <ele>1320</ele>
        <time>2000-01-01T03:36:53.000Z</time>
      </trkpt>
      <trkpt lat="45.78615" lon="6.50522">
        <ele>1313.7</ele>
        <time>2000-01-01T03:37:03.000Z</time>
      </trkpt>
      <trkpt lat="45.78615" lon="6.50512">
        <ele>1313</ele>
        <time>2000-01-01T03:37:13.000Z</time>
      </trkpt>
      <trkpt lat="45.78615" lon="6.50501">
        <ele>1315</ele>
        <time>2000-01-01T03:37:23.000Z</time>
      </trkpt>
      <trkpt lat="45.7861" lon="6.50493">
        <ele>1303.8</ele>
        <time>2000-01-01T03:37:33.000Z</time>
      </trkpt>
      <trkpt lat="45.78604" lon="6.50481">
        <ele>1303.4</ele>
        <time>2000-01-01T03:37:43.000Z</time>
      </trkpt>
      <trkpt lat="45.78597" lon="6.50468">
        <ele>1311</ele>
        <time>2000-01-01T03:37:53.000Z</time>
      </trkpt>
      <trkpt lat="45.78591" lon="6.5046">
        <ele>1301.7</ele>
        <time>2000-01-01T03:38:03.000Z</time>
      </trkpt>
      <trkpt lat="45.78587" lon="6.50453">
        <ele>1301.1</ele>
        <time>2000-01-01T03:38:13.000Z</time>
      </trkpt>
      <trkpt lat="45.78585" lon="6.50429">
        <ele>1295</ele>
        <time>2000-01-01T03:38:23.000Z</time>
      </trkpt>
      <trkpt lat="45.78582" lon="6.5041">
        <ele>1296.8</ele>
        <time>2000-01-01T03:38:33.000Z</time>
      </trkpt>
      <trkpt lat="45.78579" lon="6.50381">
        <ele>1287</ele>
        <time>2000-01-01T03:38:43.000Z</time>
      </trkpt>
      <trkpt lat="45.78579" lon="6.50355">
        <ele>1286.7</ele>
        <time>2000-01-01T03:38:53.000Z</time>
      </trkpt>
      <trkpt lat="45.78579" lon="6.5034">
        <ele>1276</ele>
        <time>2000-01-01T03:39:03.000Z</time>
      </trkpt>
      <trkpt lat="45.78579" lon="6.50328">
        <ele>1279.1</ele>
        <time>2000-01-01T03:39:13.000Z</time>
      </trkpt>
      <trkpt lat="45.78579" lon="6.50314">
        <ele>1276.3</ele>
        <time>2000-01-01T03:39:23.000Z</time>
      </trkpt>
      <trkpt lat="45.78579" lon="6.50307">
        <ele>1271</ele>
        <time>2000-01-01T03:39:33.000Z</time>
      </trkpt>
      <trkpt lat="45.78576" lon="6.50294">
        <ele>1272.7</ele>
        <time>2000-01-01T03:39:43.000Z</time>
      </trkpt>
      <trkpt lat="45.78574" lon="6.50281">
        <ele>1270.4</ele>
        <time>2000-01-01T03:39:53.000Z</time>
      </trkpt>
      <trkpt lat="45.7857" lon="6.50266">
        <ele>1260</ele>
        <time>2000-01-01T03:40:03.000Z</time>
      </trkpt>
      <trkpt lat="45.78571" lon="6.50256">
        <ele>1265.6</ele>
        <time>2000-01-01T03:40:13.000Z</time>
      </trkpt>
      <trkpt lat="45.78572" lon="6.50243">
        <ele>1260</ele>
        <time>2000-01-01T03:40:23.000Z</time>
      </trkpt>
      <trkpt lat="45.78579" lon="6.50235">
        <ele>1256</ele>
        <time>2000-01-01T03:40:33.000Z</time>
      </trkpt>
      <trkpt lat="45.78579" lon="6.50226">
        <ele>1259.4</ele>
        <time>2000-01-01T03:40:43.000Z</time>
      </trkpt>
      <trkpt lat="45.78581" lon="6.50217">
        <ele>1258.9</ele>
        <time>2000-01-01T03:40:53.000Z</time>
      </trkpt>
      <trkpt lat="45.78586" lon="6.50205">
        <ele>1252</ele>
        <time>2000-01-01T03:41:03.000Z</time>
      </trkpt>
      <trkpt lat="45.78593" lon="6.50195">
        <ele>1253.6</ele>
        <time>2000-01-01T03:41:13.000Z</time>
      </trkpt>
      <trkpt lat="45.78603" lon="6.50188">
        <ele>1244</ele>
        <time>2000-01-01T03:41:23.000Z</time>
      </trkpt>
      <trkpt lat="45.7861" lon="6.50184">
        <ele>1252.9</ele>
        <time>2000-01-01T03:41:33.000Z</time>
      </trkpt>
      <trkpt lat="45.78615" lon="6.50178">
        <ele>1252.6</ele>
        <time>2000-01-01T03:41:43.000Z</time>
      </trkpt>
      <trkpt lat="45.78621" lon="6.50174">
        <ele>1244</ele>
        <time>2000-01-01T03:41:53.000Z</time>
      </trkpt>
      <trkpt lat="45.78624" lon="6.50169">
        <ele>1252</ele>
        <time>2000-01-01T03:42:03.000Z</time>
      </trkpt>
      <trkpt lat="45.78628" lon="6.50165">
        <ele>1246.8</ele>
        <time>2000-01-01T03:42:13.000Z</time>
      </trkpt>
      <trkpt lat="45.78631" lon="6.50161">
        <ele>1246.6</ele>
        <time>2000-01-01T03:42:23.000Z</time>
      </trkpt>
      <trkpt lat="45.78634" lon="6.50157">
        <ele>1246.4</ele>
        <time>2000-01-01T03:42:33.000Z</time>
      </trkpt>
      <trkpt lat="45.78637" lon="6.50152">
        <ele>1237</ele>
        <time>2000-01-01T03:42:43.000Z</time>
      </trkpt>
      <trkpt lat="45.7864" lon="6.50149">
        <ele>1245.9</ele>
        <time>2000-01-01T03:42:53.000Z</time>
      </trkpt>
      <trkpt lat="45.78641" lon="6.50149">
        <ele>1245.9</ele>
        <time>2000-01-01T03:43:03.000Z</time>
      </trkpt>
      <trkpt lat="45.78643" lon="6.50146">
        <ele>1245.7</ele>
        <time>2000-01-01T03:43:13.000Z</time>
      </trkpt>
      <trkpt lat="45.78644" lon="6.50146">
        <ele>1245.7</ele>
        <time>2000-01-01T03:43:23.000Z</time>
      </trkpt>
      <trkpt lat="45.78647" lon="6.50146">
        <ele>1245.6</ele>
        <time>2000-01-01T03:43:33.000Z</time>
      </trkpt>
      <trkpt lat="45.78647" lon="6.50141">
        <ele>1245.4</ele>
        <time>2000-01-01T03:43:43.000Z</time>
      </trkpt>
      <trkpt lat="45.78646" lon="6.50138">
        <ele>1245.3</ele>
        <time>2000-01-01T03:43:53.000Z</time>
      </trkpt>
      <trkpt lat="45.78645" lon="6.50135">
        <ele>1237</ele>
        <time>2000-01-01T03:44:03.000Z</time>
      </trkpt>
      <trkpt lat="45.78645" lon="6.50131">
        <ele>1245</ele>
        <time>2000-01-01T03:44:13.000Z</time>
      </trkpt>
      <trkpt lat="45.78645" lon="6.50123">
        <ele>1244.5</ele>
        <time>2000-01-01T03:44:23.000Z</time>
      </trkpt>
      <trkpt lat="45.78646" lon="6.50115">
        <ele>1243.9</ele>
        <time>2000-01-01T03:44:33.000Z</time>
      </trkpt>
      <trkpt lat="45.78648" lon="6.50111">
        <ele>1243.4</ele>
        <time>2000-01-01T03:44:43.000Z</time>
      </trkpt>
      <trkpt lat="45.78649" lon="6.50105">
        <ele>1235</ele>
        <time>2000-01-01T03:44:53.000Z</time>
      </trkpt>
      <trkpt lat="45.7865" lon="6.50102">
        <ele>1242.4</ele>
        <time>2000-01-01T03:45:03.000Z</time>
      </trkpt>
      <trkpt lat="45.78654" lon="6.50098">
        <ele>1241.4</ele>
        <time>2000-01-01T03:45:13.000Z</time>
      </trkpt>
      <trkpt lat="45.78656" lon="6.50093">
        <ele>1240.4</ele>
        <time>2000-01-01T03:45:23.000Z</time>
      </trkpt>
      <trkpt lat="45.78662" lon="6.50089">
        <ele>1238.6</ele>
        <time>2000-01-01T03:45:33.000Z</time>
      </trkpt>
      <trkpt lat="45.78664" lon="6.5008">
        <ele>1227</ele>
        <time>2000-01-01T03:45:43.000Z</time>
      </trkpt>
      <trkpt lat="45.78667" lon="6.50075">
        <ele>1233.3</ele>
        <time>2000-01-01T03:45:53.000Z</time>
      </trkpt>
      <trkpt lat="45.78668" lon="6.50069">
        <ele>1231.8</ele>
        <time>2000-01-01T03:46:03.000Z</time>
      </trkpt>
      <trkpt lat="45.78669" lon="6.50058">
        <ele>1229.7</ele>
        <time>2000-01-01T03:46:13.000Z</time>
      </trkpt>
      <trkpt lat="45.78669" lon="6.50049">
        <ele>1221</ele>
        <time>2000-01-01T03:46:23.000Z</time>
      </trkpt>
      <trkpt lat="45.78669" lon="6.5004">
        <ele>1227.2</ele>
        <time>2000-01-01T03:46:33.000Z</time>
      </trkpt>
      <trkpt lat="45.78671" lon="6.50039">
        <ele>1227.1</ele>
        <time>2000-01-01T03:46:43.000Z</time>
      </trkpt>
      <trkpt lat="45.78675" lon="6.50043">
        <ele>1227.5</ele>
        <time>2000-01-01T03:46:53.000Z</time>
      </trkpt>
      <trkpt lat="45.7868" lon="6.50048">
        <ele>1221</ele>
        <time>2000-01-01T03:47:03.000Z</time>
      </trkpt>
      <trkpt lat="45.78685" lon="6.5005">
        <ele>1228.1</ele>
        <time>2000-01-01T03:47:13.000Z</time>
      </trkpt>
      <trkpt lat="45.78688" lon="6.50053">
        <ele>1228.3</ele>
        <time>2000-01-01T03:47:23.000Z</time>
      </trkpt>
      <trkpt lat="45.78692" lon="6.50055">
        <ele>1228.3</ele>
        <time>2000-01-01T03:47:33.000Z</time>
      </trkpt>
      <trkpt lat="45.78697" lon="6.50058">
        <ele>1228.3</ele>
        <time>2000-01-01T03:47:43.000Z</time>
      </trkpt>
      <trkpt lat="45.78699" lon="6.5006">
        <ele>1219</ele>
        <time>2000-01-01T03:47:53.000Z</time>
      </trkpt>
      <trkpt lat="45.78702" lon="6.50056">
        <ele>1227.9</ele>
        <time>2000-01-01T03:48:03.000Z</time>
      </trkpt>
      <trkpt lat="45.78702" lon="6.50053">
        <ele>1227.7</ele>
        <time>2000-01-01T03:48:13.000Z</time>
      </trkpt>
      <trkpt lat="45.78703" lon="6.50048">
        <ele>1227.2</ele>
        <time>2000-01-01T03:48:23.000Z</time>
      </trkpt>
      <trkpt lat="45.78704" lon="6.50043">
        <ele>1226.7</ele>
        <time>2000-01-01T03:48:33.000Z</time>
      </trkpt>
      <trkpt lat="45.78704" lon="6.50037">
        <ele>1226.2</ele>
        <time>2000-01-01T03:48:43.000Z</time>
      </trkpt>
      <trkpt lat="45.78702" lon="6.50028">
        <ele>1215</ele>
        <time>2000-01-01T03:48:53.000Z</time>
      </trkpt>
      <trkpt lat="45.787" lon="6.5002">
        <ele>1225</ele>
        <time>2000-01-01T03:49:03.000Z</time>
      </trkpt>
      <trkpt lat="45.78698" lon="6.5001">
        <ele>1224.5</ele>
        <time>2000-01-01T03:49:13.000Z</time>
      </trkpt>
      <trkpt lat="45.78696" lon="6.50006">
        <ele>1224.3</ele>
        <time>2000-01-01T03:49:23.000Z</time>
      </trkpt>
      <trkpt lat="45.78694" lon="6.50002">
        <ele>1210</ele>
        <time>2000-01-01T03:49:33.000Z</time>
      </trkpt>
      <trkpt lat="45.78694" lon="6.49996">
        <ele>1217.4</ele>
        <time>2000-01-01T03:49:43.000Z</time>
      </trkpt>
      <trkpt lat="45.78694" lon="6.49991">
        <ele>1217.2</ele>
        <time>2000-01-01T03:49:53.000Z</time>
      </trkpt>
      <trkpt lat="45.78694" lon="6.49983">
        <ele>1216.8</ele>
        <time>2000-01-01T03:50:03.000Z</time>
      </trkpt>
      <trkpt lat="45.78692" lon="6.49973">
        <ele>1207</ele>
        <time>2000-01-01T03:50:13.000Z</time>
      </trkpt>
      <trkpt lat="45.78691" lon="6.49969">
        <ele>1216</ele>
        <time>2000-01-01T03:50:23.000Z</time>
      </trkpt>
      <trkpt lat="45.78689" lon="6.49962">
        <ele>1215.6</ele>
        <time>2000-01-01T03:50:33.000Z</time>
      </trkpt>
      <trkpt lat="45.7869" lon="6.49955">
        <ele>1215.1</ele>
        <time>2000-01-01T03:50:43.000Z</time>
      </trkpt>
      <trkpt lat="45.7869" lon="6.4995">
        <ele>1214.8</ele>
        <time>2000-01-01T03:50:53.000Z</time>
      </trkpt>
      <trkpt lat="45.78692" lon="6.49941">
        <ele>1204</ele>
        <time>2000-01-01T03:51:03.000Z</time>
      </trkpt>
      <trkpt lat="45.78692" lon="6.49933">
        <ele>1213.9</ele>
        <time>2000-01-01T03:51:13.000Z</time>
      </trkpt>
      <trkpt lat="45.78693" lon="6.49927">
        <ele>1213.7</ele>
        <time>2000-01-01T03:51:23.000Z</time>
      </trkpt>
      <trkpt lat="45.78694" lon="6.49916">
        <ele>1207.1</ele>
        <time>2000-01-01T03:51:33.000Z</time>
      </trkpt>
      <trkpt lat="45.78694" lon="6.49908">
        <ele>1202</ele>
        <time>2000-01-01T03:51:43.000Z</time>
      </trkpt>
      <trkpt lat="45.78693" lon="6.49897">
        <ele>1206</ele>
        <time>2000-01-01T03:51:53.000Z</time>
      </trkpt>
      <trkpt lat="45.78691" lon="6.49891">
        <ele>1205.5</ele>
        <time>2000-01-01T03:52:03.000Z</time>
      </trkpt>
      <trkpt lat="45.78689" lon="6.49881">
        <ele>1202</ele>
        <time>2000-01-01T03:52:13.000Z</time>
      </trkpt>
      <trkpt lat="45.78687" lon="6.49877">
        <ele>1204.2</ele>
        <time>2000-01-01T03:52:23.000Z</time>
      </trkpt>
      <trkpt lat="45.78686" lon="6.49869">
        <ele>1203.4</ele>
        <time>2000-01-01T03:52:33.000Z</time>
      </trkpt>
      <trkpt lat="45.78683" lon="6.49864">
        <ele>1202.9</ele>
        <time>2000-01-01T03:52:43.000Z</time>
      </trkpt>
      <trkpt lat="45.78682" lon="6.49857">
        <ele>1198</ele>
        <time>2000-01-01T03:52:53.000Z</time>
      </trkpt>
      <trkpt lat="45.78681" lon="6.49848">
        <ele>1201.2</ele>
        <time>2000-01-01T03:53:03.000Z</time>
      </trkpt>
      <trkpt lat="45.7868" lon="6.49842">
        <ele>1200.6</ele>
        <time>2000-01-01T03:53:13.000Z</time>
      </trkpt>
      <trkpt lat="45.78678" lon="6.49836">
        <ele>1200</ele>
        <time>2000-01-01T03:53:23.000Z</time>
      </trkpt>
      <trkpt lat="45.78676" lon="6.49832">
        <ele>1192</ele>
        <time>2000-01-01T03:53:33.000Z</time>
      </trkpt>
      <trkpt lat="45.78672" lon="6.49826">
        <ele>1196.2</ele>
        <time>2000-01-01T03:53:43.000Z</time>
      </trkpt>
      <trkpt lat="45.78669" lon="6.49819">
        <ele>1195.4</ele>
        <time>2000-01-01T03:53:53.000Z</time>
      </trkpt>
      <trkpt lat="45.78668" lon="6.49814">
        <ele>1194.7</ele>
        <time>2000-01-01T03:54:03.000Z</time>
      </trkpt>
      <trkpt lat="45.78666" lon="6.49809">
        <ele>1196.2</ele>
        <time>2000-01-01T03:54:13.000Z</time>
      </trkpt>
      <trkpt lat="45.78671" lon="6.49807">
        <ele>1188</ele>
        <time>2000-01-01T03:54:23.000Z</time>
      </trkpt>
      <trkpt lat="45.78676" lon="6.49804">
        <ele>1193.5</ele>
        <time>2000-01-01T03:54:33.000Z</time>
      </trkpt>
      <trkpt lat="45.78677" lon="6.49802">
        <ele>1193.3</ele>
        <time>2000-01-01T03:54:43.000Z</time>
      </trkpt>
      <trkpt lat="45.78677" lon="6.49797">
        <ele>1192.8</ele>
        <time>2000-01-01T03:54:53.000Z</time>
      </trkpt>
      <trkpt lat="45.78675" lon="6.49792">
        <ele>1192.4</ele>
        <time>2000-01-01T03:55:03.000Z</time>
      </trkpt>
      <trkpt lat="45.78672" lon="6.49788">
        <ele>1192</ele>
        <time>2000-01-01T03:55:13.000Z</time>
      </trkpt>
      <trkpt lat="45.78667" lon="6.49783">
        <ele>1185</ele>
        <time>2000-01-01T03:55:23.000Z</time>
      </trkpt>
      <trkpt lat="45.78665" lon="6.49779">
        <ele>1193.2</ele>
        <time>2000-01-01T03:55:33.000Z</time>
      </trkpt>
      <trkpt lat="45.7866" lon="6.49774">
        <ele>1192.7</ele>
        <time>2000-01-01T03:55:43.000Z</time>
      </trkpt>
      <trkpt lat="45.78652" lon="6.49766">
        <ele>1179</ele>
        <time>2000-01-01T03:55:53.000Z</time>
      </trkpt>
      <trkpt lat="45.78647" lon="6.49759">
        <ele>1192</ele>
        <time>2000-01-01T03:56:03.000Z</time>
      </trkpt>
      <trkpt lat="45.78643" lon="6.49759">
        <ele>1192.5</ele>
        <time>2000-01-01T03:56:13.000Z</time>
      </trkpt>
      <trkpt lat="45.78637" lon="6.49754">
        <ele>1192.8</ele>
        <time>2000-01-01T03:56:23.000Z</time>
      </trkpt>
      <trkpt lat="45.78633" lon="6.49751">
        <ele>1179</ele>
        <time>2000-01-01T03:56:33.000Z</time>
      </trkpt>
      <trkpt lat="45.7863" lon="6.49746">
        <ele>1186</ele>
        <time>2000-01-01T03:56:43.000Z</time>
      </trkpt>
      <trkpt lat="45.78627" lon="6.49735">
        <ele>1185.7</ele>
        <time>2000-01-01T03:56:53.000Z</time>
      </trkpt>
      <trkpt lat="45.78625" lon="6.49728">
        <ele>1185.4</ele>
        <time>2000-01-01T03:57:03.000Z</time>
      </trkpt>
      <trkpt lat="45.78624" lon="6.4972">
        <ele>1179</ele>
        <time>2000-01-01T03:57:13.000Z</time>
      </trkpt>
      <trkpt lat="45.78618" lon="6.49706">
        <ele>1184.1</ele>
        <time>2000-01-01T03:57:23.000Z</time>
      </trkpt>
      <trkpt lat="45.78614" lon="6.49695">
        <ele>1178</ele>
        <time>2000-01-01T03:57:33.000Z</time>
      </trkpt>
      <trkpt lat="45.78612" lon="6.49687">
        <ele>1182.8</ele>
        <time>2000-01-01T03:57:43.000Z</time>
      </trkpt>
      <trkpt lat="45.78608" lon="6.49679">
        <ele>1182.1</ele>
        <time>2000-01-01T03:57:53.000Z</time>
      </trkpt>
      <trkpt lat="45.78604" lon="6.49671">
        <ele>1178</ele>
        <time>2000-01-01T03:58:03.000Z</time>
      </trkpt>
      <trkpt lat="45.786" lon="6.49664">
        <ele>1176.5</ele>
        <time>2000-01-01T03:58:13.000Z</time>
      </trkpt>
      <trkpt lat="45.78596" lon="6.49657">
        <ele>1176.5</ele>
        <time>2000-01-01T03:58:23.000Z</time>
      </trkpt>
      <trkpt lat="45.78592" lon="6.49648">
        <ele>1175</ele>
        <time>2000-01-01T03:58:33.000Z</time>
      </trkpt>
      <trkpt lat="45.78588" lon="6.49642">
        <ele>1175.5</ele>
        <time>2000-01-01T03:58:43.000Z</time>
      </trkpt>
      <trkpt lat="45.78583" lon="6.49636">
        <ele>1176</ele>
        <time>2000-01-01T03:58:53.000Z</time>
      </trkpt>
      <trkpt lat="45.78577" lon="6.49626">
        <ele>1173</ele>
        <time>2000-01-01T03:59:03.000Z</time>
      </trkpt>
      <trkpt lat="45.78573" lon="6.49623">
        <ele>1175</ele>
        <time>2000-01-01T03:59:13.000Z</time>
      </trkpt>
      <trkpt lat="45.78569" lon="6.4962">
        <ele>1174.8</ele>
        <time>2000-01-01T03:59:23.000Z</time>
      </trkpt>
      <trkpt lat="45.78565" lon="6.49615">
        <ele>1174.5</ele>
        <time>2000-01-01T03:59:33.000Z</time>
      </trkpt>
      <trkpt lat="45.78558" lon="6.49608">
        <ele>1170</ele>
        <time>2000-01-01T03:59:43.000Z</time>
      </trkpt>
      <trkpt lat="45.78552" lon="6.49602">
        <ele>1174</ele>
        <time>2000-01-01T03:59:53.000Z</time>
      </trkpt>
      <trkpt lat="45.78545" lon="6.49591">
        <ele>1173.7</ele>
        <time>2000-01-01T04:00:03.000Z</time>
      </trkpt>
      <trkpt lat="45.78541" lon="6.49588">
        <ele>1164</ele>
        <time>2000-01-01T04:00:13.000Z</time>
      </trkpt>
      <trkpt lat="45.78536" lon="6.49583">
        <ele>1166.9</ele>
        <time>2000-01-01T04:00:23.000Z</time>
      </trkpt>
      <trkpt lat="45.78532" lon="6.49579">
        <ele>1166.9</ele>
        <time>2000-01-01T04:00:33.000Z</time>
      </trkpt>
      <trkpt lat="45.78529" lon="6.49577">
        <ele>1167</ele>
        <time>2000-01-01T04:00:43.000Z</time>
      </trkpt>
      <trkpt lat="45.78521" lon="6.49571">
        <ele>1164</ele>
        <time>2000-01-01T04:00:53.000Z</time>
      </trkpt>
      <trkpt lat="45.78516" lon="6.49567">
        <ele>1167</ele>
        <time>2000-01-01T04:01:03.000Z</time>
      </trkpt>
      <trkpt lat="45.78512" lon="6.49563">
        <ele>1166.8</ele>
        <time>2000-01-01T04:01:13.000Z</time>
      </trkpt>
      <trkpt lat="45.78508" lon="6.49558">
        <ele>1166.4</ele>
        <time>2000-01-01T04:01:23.000Z</time>
      </trkpt>
      <trkpt lat="45.78507" lon="6.49553">
        <ele>1160</ele>
        <time>2000-01-01T04:01:33.000Z</time>
      </trkpt>
      <trkpt lat="45.78511" lon="6.49546">
        <ele>1165.3</ele>
        <time>2000-01-01T04:01:43.000Z</time>
      </trkpt>
      <trkpt lat="45.78515" lon="6.49543">
        <ele>1165</ele>
        <time>2000-01-01T04:01:53.000Z</time>
      </trkpt>
      <trkpt lat="45.7852" lon="6.49538">
        <ele>1164.7</ele>
        <time>2000-01-01T04:02:03.000Z</time>
      </trkpt>
      <trkpt lat="45.78525" lon="6.49535">
        <ele>1160</ele>
        <time>2000-01-01T04:02:13.000Z</time>
      </trkpt>
      <trkpt lat="45.78532" lon="6.49535">
        <ele>1164.9</ele>
        <time>2000-01-01T04:02:23.000Z</time>
      </trkpt>
      <trkpt lat="45.7854" lon="6.49535">
        <ele>1165.2</ele>
        <time>2000-01-01T04:02:33.000Z</time>
      </trkpt>
      <trkpt lat="45.78548" lon="6.49535">
        <ele>1160</ele>
        <time>2000-01-01T04:02:43.000Z</time>
      </trkpt>
      <trkpt lat="45.78558" lon="6.49532">
        <ele>1165.6</ele>
        <time>2000-01-01T04:02:53.000Z</time>
      </trkpt>
      <trkpt lat="45.78565" lon="6.4953">
        <ele>1165.8</ele>
        <time>2000-01-01T04:03:03.000Z</time>
      </trkpt>
      <trkpt lat="45.78572" lon="6.49527">
        <ele>1174</ele>
        <time>2000-01-01T04:03:13.000Z</time>
      </trkpt>
      <trkpt lat="45.78578" lon="6.49524">
        <ele>1166.1</ele>
        <time>2000-01-01T04:03:23.000Z</time>
      </trkpt>
      <trkpt lat="45.78587" lon="6.4952">
        <ele>1168.7</ele>
        <time>2000-01-01T04:03:33.000Z</time>
      </trkpt>
      <trkpt lat="45.78592" lon="6.49518">
        <ele>1174</ele>
        <time>2000-01-01T04:03:43.000Z</time>
      </trkpt>
      <trkpt lat="45.78596" lon="6.49518">
        <ele>1168.9</ele>
        <time>2000-01-01T04:03:53.000Z</time>
      </trkpt>
      <trkpt lat="45.786" lon="6.49516">
        <ele>1169</ele>
        <time>2000-01-01T04:04:03.000Z</time>
      </trkpt>
      <trkpt lat="45.78598" lon="6.4951">
        <ele>1168.7</ele>
        <time>2000-01-01T04:04:13.000Z</time>
      </trkpt>
      <trkpt lat="45.78596" lon="6.49508">
        <ele>1168.5</ele>
        <time>2000-01-01T04:04:23.000Z</time>
      </trkpt>
      <trkpt lat="45.78621" lon="6.49536">
        <ele>1170.1</ele>
      </trkpt>
      <trkpt lat="45.78638" lon="6.4954">
        <ele>1170.7</ele>
      </trkpt>
      <trkpt lat="45.78655" lon="6.49529">
        <ele>1171.2</ele>
      </trkpt>
      <trkpt lat="45.78671" lon="6.49508">
        <ele>1172.5</ele>
      </trkpt>
      <trkpt lat="45.78632" lon="6.49455">
        <ele>1165.8</ele>
      </trkpt>
      <trkpt lat="45.78593" lon="6.49436">
        <ele>1162.9</ele>
      </trkpt>
      <trkpt lat="45.78588" lon="6.49427">
        <ele>1161.5</ele>
      </trkpt>
      <trkpt lat="45.78611" lon="6.4939">
        <ele>1153</ele>
      </trkpt>
      <trkpt lat="45.78638" lon="6.4939">
        <ele>1153.5</ele>
      </trkpt>
      <trkpt lat="45.78699" lon="6.49404">
        <ele>1151</ele>
      </trkpt>
      <trkpt lat="45.7876" lon="6.49425">
        <ele>1154.5</ele>
      </trkpt>
      <trkpt lat="45.78861" lon="6.49434">
        <ele>1145.7</ele>
      </trkpt>
      <trkpt lat="45.7898" lon="6.49443">
        <ele>1132.6</ele>
      </trkpt>
      <trkpt lat="45.79037" lon="6.4945">
        <ele>1120.7</ele>
      </trkpt>
      <trkpt lat="45.79187" lon="6.49519">
        <ele>1114.9</ele>
      </trkpt>
      <trkpt lat="45.79214" lon="6.49571">
        <ele>1118.8</ele>
      </trkpt>
      <trkpt lat="45.7925" lon="6.49635">
        <ele>1136.3</ele>
      </trkpt>
      <trkpt lat="45.7927" lon="6.49673">
        <ele>1137.4</ele>
      </trkpt>
      <trkpt lat="45.79298" lon="6.49702">
        <ele>1136.8</ele>
      </trkpt>
      <trkpt lat="45.79319" lon="6.49736">
        <ele>1138</ele>
      </trkpt>
      <trkpt lat="45.79326" lon="6.49769">
        <ele>1145.4</ele>
      </trkpt>
      <trkpt lat="45.79346" lon="6.49799">
        <ele>1137.8</ele>
      </trkpt>
      <trkpt lat="45.79343" lon="6.49811">
        <ele>1140</ele>
      </trkpt>
      <trkpt lat="45.79311" lon="6.49803">
        <ele>1150.3</ele>
      </trkpt>
      <trkpt lat="45.79287" lon="6.49788">
        <ele>1151.7</ele>
      </trkpt>
      <trkpt lat="45.79233" lon="6.49737">
        <ele>1154.6</ele>
      </trkpt>
      <trkpt lat="45.79216" lon="6.49729">
        <ele>1155.7</ele>
      </trkpt>
      <trkpt lat="45.79272" lon="6.49808">
        <ele>1155</ele>
      </trkpt>
      <trkpt lat="45.79327" lon="6.49891">
        <ele>1162.6</ele>
      </trkpt>
      <trkpt lat="45.79339" lon="6.49913">
        <ele>1159</ele>
      </trkpt>
      <trkpt lat="45.79342" lon="6.49953">
        <ele>1164.1</ele>
      </trkpt>
      <trkpt lat="45.79341" lon="6.49989">
        <ele>1170.9</ele>
      </trkpt>
      <trkpt lat="45.79358" lon="6.4999">
        <ele>1167.3</ele>
      </trkpt>
      <trkpt lat="45.79375" lon="6.50007">
        <ele>1174</ele>
      </trkpt>
      <trkpt lat="45.79385" lon="6.50017">
        <ele>1173.3</ele>
      </trkpt>
      <trkpt lat="45.79395" lon="6.50027">
        <ele>1173</ele>
      </trkpt>
      <trkpt lat="45.79401" lon="6.50038">
        <ele>1174</ele>
      </trkpt>
      <trkpt lat="45.79408" lon="6.5009">
        <ele>1181.1</ele>
      </trkpt>
      <trkpt lat="45.79425" lon="6.50142">
        <ele>1183.4</ele>
      </trkpt>
      <trkpt lat="45.79432" lon="6.502">
        <ele>1193.5</ele>
      </trkpt>
      <trkpt lat="45.79427" lon="6.5023">
        <ele>1196.3</ele>
      </trkpt>
      <trkpt lat="45.79417" lon="6.50258">
        <ele>1201.3</ele>
      </trkpt>
      <trkpt lat="45.79416" lon="6.50316">
        <ele>1209</ele>
      </trkpt>
      <trkpt lat="45.79419" lon="6.50355">
        <ele>1211.9</ele>
      </trkpt>
      <trkpt lat="45.79439" lon="6.50399">
        <ele>1214.3</ele>
      </trkpt>
      <trkpt lat="45.79446" lon="6.50416">
        <ele>1214.5</ele>
      </trkpt>
      <trkpt lat="45.79447" lon="6.5043">
        <ele>1217.6</ele>
      </trkpt>
      <trkpt lat="45.79428" lon="6.50401">
        <ele>1214.8</ele>
      </trkpt>
      <trkpt lat="45.79406" lon="6.5038">
        <ele>1214.6</ele>
      </trkpt>
      <trkpt lat="45.79383" lon="6.50352">
        <ele>1213.9</ele>
      </trkpt>
      <trkpt lat="45.79374" lon="6.50342">
        <ele>1214</ele>
      </trkpt>
    </trkseg>
  </trk>
</gpx>